İHALESİ DEVAM EDEN HASARLI ARAÇLARIN LİSTESİ

Aşağıda sınırlı sayıda hasarlı araçlar listelenmektedir.
İhaledeki tüm araçları görüp almak istediğiniz araca teklif vermeniz için aşağıda yazılı hesaplarımızdan birine 20.000 TL teminat yatırmanız gerekmektedir.
Teminat yatırdıktan sonra araçlar teklif vermeye başlayabilirsiniz. Araç kaldıktan sonra aracın rakamına göre kapora almaktayız. Ödeme geldiğinde kaporanızı ödeyeceğiniz miktardan düşüyoruz. İsterseniz yatırdığınız teminatınızı da aldığınız araçtan düşebilirsiniz ya da teminatınız durur araç almaya devam edersiniz.
Ödeme yapılacak veya bekleyen araçlar menüsünde aracınız yoksa teminatınızı geri çekebilirsiniz.
Aldığınız aracı ödemezseniz teminatınız yanar.

 #

Model

Aracın Markası Aracın Tipi Bulunduğu Şehir Kapanış Tarihi Asgari Fiyat
1 2022 Motorsiklet ARORA DAZZLE 50 İstanbul 3.9.2026 10:00 750 TL
2 2020 Motorsiklet FALCON ATTACK 100 Mersin 3.9.2026 10:00 750 TL
3 2016 Hyundai ACCENT BLUE 1.4 D-CVVT MODE PLUS Samsun 3.9.2026 10:00 250 TL
4 2022 Motorsiklet KUBA BLUEBERRY 50 İstanbul 3.9.2026 10:00 250 TL
5 2023 Motorsiklet VOLTA VS1 Ankara 3.9.2026 10:00 250 TL
6 2024 Motorsiklet MONDIAL ELEGANTE 125 Eskişehir 3.9.2026 10:00 250 TL
7 2025 Motorsiklet CSN MOTOR BEAUTY 50 Kütahya 3.9.2026 10:00 500 TL
8 2021 Motorsiklet ARORA CAPIROSSI 50 Uşak 3.9.2026 10:00 500 TL
9 2021 Motorsiklet MONDIAL WİNG 50 İstanbul 3.9.2026 10:00 750 TL
10 2023 Motorsiklet RKS SPONTINI 110 (GST110T-14) Bursa 3.9.2026 10:00 500 TL
11 2024 Motorsiklet ALTAI CARRIER 110 PRO İstanbul 3.9.2026 10:00 500 TL
12 2023 Motorsiklet MONDIAL AİRTİME 50CC Isparta 3.9.2026 10:00 750 TL
13 2023 Motorsiklet MONDIAL 50 wing Denizli 3.9.2026 10:00 500 TL
14 2024 Motorsiklet MONDIAL EXON 50 Ankara 3.9.2026 10:00 500 TL
15 2014 Motorsiklet MONDIAL 100 SUPERBOY i İstanbul 3.9.2026 10:00 500 TL
16 2015 Motorsiklet HONDA CBF 150 SH Malatya 3.9.2026 10:30 750 TL
17 2022 Motorsiklet TVS WEGO 110 FI Adana 3.9.2026 10:30 1.000 TL
18 2018 Motorsiklet RKS WINNER 200 Sakarya 3.9.2026 10:30 1.500 TL
19 2024 Motorsiklet ABUSH SPEEDY 110i Siirt 3.9.2026 10:30 1.000 TL
20 2022 Motorsiklet MONDIAL 125 DRİFT L İzmir 3.9.2026 10:30 1.000 TL
21 1989 Opel KADETT GL 1.3 İzmir 3.9.2026 10:30 1.500 TL
22 2021 Motorsiklet REVOLT RM5 X MAXI SCOOTER İzmir 3.9.2026 10:30 750 TL
23 2024 Motorsiklet ARORA AR 06 Samsun 3.9.2026 10:30 1.500 TL
24 2025 Motorsiklet TVS JUPITER 125 Adana 3.9.2026 10:30 1.500 TL
25 2024 Motorsiklet MUSATTI GLAMARO MAX 125 İstanbul 3.9.2026 10:30 1.000 TL
26 2023 Motorsiklet RKS SPONTINI 110 (GST110T-14) İstanbul 3.9.2026 10:30 1.500 TL
27 2024 Motorsiklet FALCON SALVADOR 188 Çorum 3.9.2026 10:30 1.500 TL
28 1993 Motorsiklet HONDA KINETIC Kilis 3.9.2026 10:30 750 TL
29 2024 Motorsiklet MONDIAL 125 DRIFT L CBS Kayseri 3.9.2026 10:30 1.000 TL
30 2024 Motorsiklet APEC PS3 50 Ankara 3.9.2026 10:30 1.000 TL
31 2018 Motorsiklet HONDA ACTIVA S (NSC125) İstanbul 3.9.2026 11:00 2.000 TL
32 2023 Motorsiklet MONDIAL WİNG 50 Aydın 3.9.2026 11:00 2.000 TL
33 2022 Motorsiklet MOTOLUX CEO 110 Gaziantep 3.9.2026 11:00 2.000 TL
34 2024 Motorsiklet SFM BUNDERA 50 Ordu 3.9.2026 11:00 2.000 TL
35 1991 Toyota CORONA GL Antalya 3.9.2026 11:00 2.500 TL
36 2025 Motorsiklet MONDIAL 125 DRİFT L Kocaeli 3.9.2026 11:00 2.000 TL
37 1988 Renault 12 TSW Karabük 3.9.2026 11:00 2.500 TL
38 1990 Renault TOROS Tekirdağ 3.9.2026 11:00 2.500 TL
39 2020 Motorsiklet HONDA ACTIVA S (NSC125) İstanbul 3.9.2026 11:00 2.000 TL
40 1994 Fiat/Tofaş SAHİN 1.6 Antalya 3.9.2026 11:00 2.000 TL
41 1994 Renault SPRING İstanbul 3.9.2026 11:00 2.000 TL
42 2023 Motorsiklet HONDA CB 125 Kocaeli 3.9.2026 11:00 1.500 TL
43 2023 Motorsiklet MONDİAL STRADA 125 Muğla 3.9.2026 11:00 2.500 TL
44 1996 Fiat/Tofaş TİPO 1.6 SLX Manisa 3.9.2026 11:00 2.500 TL
45 2018 Motorsiklet LIFAN DISCOVERY 150 (LF150-9J) Isparta 3.9.2026 11:00 2.000 TL
46 2009 Motorsiklet HONDA ACTIVA 100 Antalya 3.9.2026 11:30 5.000 TL
47 2025 Motorsiklet KUBA SPACEMAX 50 İstanbul 3.9.2026 11:30 4.500 TL
48 2025 Motorsiklet RKS VRS125 Ankara 3.9.2026 11:30 5.500 TL
49 2024 Motorsiklet MONDIAL 125 DRİFT L Ankara 3.9.2026 11:30 5.000 TL
50 2025 Motorsiklet KUBA NEWCITY 50 İstanbul 3.9.2026 11:30 4.500 TL
51 2025 Hyundai BAYON 1.0T ELITE DCT İzmir 3.9.2026 11:30 3.000 TL
52 1991 Fiat/Tofaş DOGAN 1.6 Karabük 3.9.2026 11:30 6.000 TL
53 1994 Fiat/Tofaş TEMPRA S Sakarya 3.9.2026 11:30 3.500 TL
54 2016 Motorsiklet HONDA CBR 125 R İzmir 3.9.2026 11:30 3.500 TL
55 1993 Fiat/Tofaş KARTAL 1.6 İzmir 3.9.2026 11:30 5.000 TL
56 2024 Motorsiklet YUKI TARO GP2 Konya 3.9.2026 11:30 3.500 TL
57 1986 Fiat/Tofaş DOĞAN Ankara 3.9.2026 11:30 4.500 TL
58 2020 Fiat/Tofaş EGEA SEDAN URBAN PLUS 1.4 FIRE 95 E6D Muş 3.9.2026 11:30 3.000 TL
59 2023 Motorsiklet RKS SPONTINI 125 İstanbul 3.9.2026 11:30 3.000 TL
60 2025 Motorsiklet MONDIAL SFC 50 Kahramanmaraş 3.9.2026 11:30 3.500 TL
61 2023 Motorsiklet RKS SPONTINI 110 İstanbul 3.9.2026 12:00 16.000 TL
62 2023 Motorsiklet KUBA VN50 PRO İzmir 3.9.2026 12:00 15.500 TL
63 2025 Motorsiklet REVOLT RSX5 150 Düzce 3.9.2026 12:00 16.500 TL
64 2021 Motorsiklet MOTOLUX CEO 110 İstanbul 3.9.2026 12:00 12.000 TL
65 1993 Fiat/Tofaş DOGAN SL İstanbul 3.9.2026 12:00 15.000 TL
66 2025 Motorsiklet MONDIAL 125 DRİFT L Samsun 3.9.2026 12:00 9.000 TL
67 1998 Mazda 323 FAMILIA 1.5 SEDAN Kütahya 3.9.2026 12:00 12.000 TL
68 2023 Motorsiklet HONDA ACTİVA 125 Bursa 3.9.2026 12:00 13.000 TL
69 1996 Fiat/Tofaş SAHİN Konya 3.9.2026 12:00 12.000 TL
70 2024 Motorsiklet RKS RZ250S İstanbul 3.9.2026 12:00 11.500 TL
71 2004 Skoda OCTAVIA 1.6 AMBIENTE İstanbul 3.9.2026 12:00 19.500 TL
72 1994 Suzuki SWIFT 1.3 GL Samsun 3.9.2026 12:00 11.500 TL
73 2018 Motorsiklet HONDA PCX 125 Bursa 3.9.2026 12:00 10.000 TL
74 2023 Motorsiklet BAJAJ PULSAR RS200 Ankara 3.9.2026 12:00 7.500 TL
75 2025 Motorsiklet MONDIAL 125 DRIFT L CBS İzmir 3.9.2026 12:00 9.000 TL
76 2023 Motorsiklet RKS NEWLIGHT 125 PRO İstanbul 3.9.2026 13:30 26.000 TL
77 2022 Motorsiklet YUKI T9 STORM 125 MAXI SCOOTER Bursa 3.9.2026 13:30 37.000 TL
78 2024 Motorsiklet MONDIAL 125 DRİFT L Kayseri 3.9.2026 13:30 38.000 TL
79 2022 Motorsiklet KUBA EGE 50 İstanbul 3.9.2026 13:30 21.000 TL
80 2020 Motorsiklet HONDA PCX 125 İstanbul 3.9.2026 13:30 45.500 TL
81 2024 Motorsiklet CFMOTO 250 SR Bursa 3.9.2026 13:30 45.000 TL
82 2025 Motorsiklet CFMOTO 250 SR İstanbul 3.9.2026 13:30 54.500 TL
83 1996 Renault 19 EUROPA 1.6i RNE Bartın 3.9.2026 13:30 48.000 TL
84 1998 Fiat/Tofaş DOGAN SLX Erzincan 3.9.2026 13:30 36.500 TL
85 2026 Motorsiklet ARORA MAX PRO Aydın 3.9.2026 13:30 20.000 TL
86 2023 Motorsiklet PULSAR NS 200 İstanbul 3.9.2026 13:30 21.500 TL
87 2026 Motorsiklet YUKI VOGE R125 İzmir 3.9.2026 13:30 21.500 TL
88 2024 Motorsiklet VOGE SR3 Adana 3.9.2026 13:30 21.500 TL
89 2017 Honda JAZZ 1.3 ELEGANCE CVT Çorum 3.9.2026 13:30 20.000 TL
90 1996 Opel VECTRA 2.0 GLS Kırıkkale 3.9.2026 13:30 21.000 TL
91 2008 Citroen BERLINGO X 1.9D COMBI İstanbul 3.9.2026 13:30 28.500 TL
92 2024 Motorsiklet BAJAJ PULSAR NS200 Muğla 3.9.2026 14:00 73.000 TL
93 2006 Fiat/Tofaş PALIO 1.3 MULTIJET ACTIVE Ankara 3.9.2026 14:00 128.000 TL
94 1996 Renault 19 EUROPA 1.6 RT Manisa 3.9.2026 14:00 92.000 TL
95 2001 Peugeot PARTNER 1.9D İstanbul 3.9.2026 14:00 72.000 TL
96 2005 Fiat/Tofaş PALIO 1.2 Konya 3.9.2026 14:00 75.000 TL
97 2010 Hyundai ACCENT ERA 1.4 Antalya 3.9.2026 14:00 109.500 TL
98 2000 Ford FOCUS 1.6i AMBIENTE SEDAN Ankara 3.9.2026 14:00 97.500 TL
99 2004 Hyundai SANTA FE 2.0 CRDi VGT H-MATIC İstanbul 3.9.2026 14:00 126.000 TL
100 2024 Motorsiklet KAWASAKI NINJA 500 İstanbul 3.9.2026 14:00 108.500 TL
101 2011 Renault FLUENCE BUSINESS 1.5 DCI (85) Gaziantep 3.9.2026 14:00 58.000 TL
102 2004 Volvo S40 1.6 Kastamonu 3.9.2026 14:00 102.000 TL
103 2012 Fiat/Tofaş LINEA ACTIVE PLUS 1.3 MULTIJET İstanbul 3.9.2026 14:00 67.000 TL
104 2004 Peugeot 307 XT 1.6 Ankara 3.9.2026 14:00 80.500 TL
105 2008 Magirus SULTAN 145 S Muğla 3.9.2026 14:00 114.500 TL
106 2025 Dorse/Römork ALAMEN TANKER YARI RÖMORK Hatay 3.9.2026 14:00 85.000 TL
107 2023 Dorse/Römork KOMODO 3 DINGIL DAMPERLI YARI ROMORK Hatay 3.9.2026 14:00 63.500 TL
108 1999 Volkswagen PASSAT 1.8 BASIC Afyonkarahisar 3.9.2026 14:30 188.000 TL
109 2008 Renault MEGANE II WAGON 1.5 DCI AUTHENTIQUE İstanbul 3.9.2026 14:30 209.500 TL
110 1998 Opel ASTRA 1.4i 16V GL SEDAN Ankara 3.9.2026 14:30 133.000 TL
111 2006 Hyundai ACCENT ERA 1.5 CRDi VGT TEAM (Y) İstanbul 3.9.2026 14:30 148.000 TL
112 2004 Toyota COROLLA 1.6 TERRA HB İstanbul 3.9.2026 14:30 159.500 TL
113 2003 Peugeot 206 CC 1.6 İstanbul 3.9.2026 14:30 185.500 TL
114 2008 Skoda OCTAVIA 1.6 ELEGANCE (102) Ankara 3.9.2026 14:30 221.500 TL
115 2014 Peugeot 208 ACCESS 1.0 VTI 68 Ankara 3.9.2026 14:30 197.000 TL
116 2012 Renault LATITUDE PRIVILEGE 1.5 DCI 110 E5 Malatya 3.9.2026 14:30 133.000 TL
117 2016 Renault SYMBOL JOY 1.5 DCI 90 Diyarbakır 3.9.2026 14:30 150.000 TL
118 2012 Hyundai ACCENT BLUE 1.6 CRDI MODE PLUS Ankara 3.9.2026 14:30 168.000 TL
119 2016 Kia BONGO K2500 CIFT TEKER KASALI KAMYONET Ankara 3.9.2026 14:30 195.000 TL
120 2016 Opel INSIGNIA NB 1.6D 136 AT6 COSMO Şırnak 3.9.2026 14:30 218.500 TL
121 2011 Peugeot 308 COMFORT 1.6 HDI (110) 5 KAPI İstanbul 3.9.2026 14:30 141.000 TL
122 2005 Ford FUSION 1.4i TDCi COMFORT 5 KAPI İstanbul 3.9.2026 14:30 134.000 TL
123 2011 Toyota COROLLA SEDAN 1.33 COMFORT Ankara 3.9.2026 14:30 178.500 TL
124 2006 Volkswagen PASSAT 2.0 TDI COMFORTLINE Gaziantep 3.9.2026 15:00 277.000 TL
125 2016 Citroen C-ELYSEE 1.6 HDI 92 ATTRACTION Ankara 3.9.2026 15:00 279.000 TL
126 2004 Volkswagen TRANSPORTER CITYVAN 1.9 TDI Ankara 3.9.2026 15:00 228.000 TL
127 2015 Audi A4 SEDAN 2.0 TDI Tekirdağ 3.9.2026 15:15 500 TL
128 2023 Ford KUGA 1.5 ECOBOOST Hatay 3.9.2026 15:15 1.000 TL
129 2024 Ford TOURNEO COURIER 1.5 DİZEL Adana 3.9.2026 15:15 1.000 TL
130 2013 Kia SPORTAGE 1.6 Konya 3.9.2026 15:15 1.000 TL
131 2015 Dacia DOKKER COMBI AMBIANCE 1.5 DCI Mardin 3.9.2026 15:15 226.000 TL
132 2016 Opel ASTRA HB 1.6 DIZEL Bursa 3.9.2026 15:15 1.000 TL
133 2024 Dacia SANDERO STEPWAY 1.0 TCE Ankara 3.9.2026 15:15 1.000 TL
134 2025 Fiat/Tofaş SCUDO 1.5 M.JET Muğla 3.9.2026 15:15 1.000 TL
135 2024 Mercedes VITO TOURER 114 CDI PRO İstanbul 3.9.2026 15:15 1.051.000 TL
136 2022 Skoda KAMIQ 1.5 TSI PREMIUM Kırıkkale 3.9.2026 15:15 1.072.000 TL
137 2018 Volkswagen TIGUAN 1.6 TDI COMFORTLİNE Mersin 3.9.2026 15:15 1.000 TL
138 2016 Volkswagen POLO 1.2 TSI İstanbul 3.9.2026 15:15 730.500 TL
139 2022 Renault CLIO JOY 1.0 TCE Sivas 3.9.2026 15:15 420.000 TL
140 2022 Mercedes CEKICI ACTROSS 1845 LS 4x2 FL Uşak 3.9.2026 15:15 1.676.000 TL
141 2025 Byd SEAL U DM-I Mersin 3.9.2026 15:15 1.012.000 TL
142 2016 Ford TRANSIT Ankara 3.9.2026 15:15 1.000 TL
143 2023 Alfa Romeo TONALE 1.3 HYBRID İzmir 3.9.2026 15:15 110.000 TL
144 2008 Isuzu NPR KAMYON Tekirdağ 3.9.2026 15:15 1.000 TL
145 2019 Iveco DAILY KAMYON 70 C 15 Antalya 3.9.2026 15:15 365.500 TL
146 2010 Ford FOCUS 1.6 Ankara 3.9.2026 15:15 163.000 TL
147 2021 Renault MEGANE SEDAN JOY 1.3 TCE İstanbul 3.9.2026 15:15 349.000 TL
148 2016 Ford RANGER XLT 2.2 TDCI Erzurum 3.9.2026 15:15 495.000 TL
149 2019 Mercedes KAMYON ATEGO 2124 Tekirdağ 3.9.2026 15:15 1.000 TL
150 2011 Opel CORSA 1.4i TWINPORT Adana 3.9.2026 15:15 210.000 TL
151 2017 Renault MEGANE SEDAN JOY 1.5 DCI Bursa 3.9.2026 15:15 1.000 TL
152 2023 Ford KAMYON 3242S Samsun 3.9.2026 15:15 1.512.000 TL
153 2026 Volvo EX30 EXTENDED RANGE ULTRA 150KW İstanbul 3.9.2026 15:15 1.000 TL
154 2021 Skoda OCTAVIA 1.0 TSI e-TEC İstanbul 3.9.2026 15:15 1.000 TL
155 2024 Chery TIGGO 8 PRO MAX 1.6 T-GDI Mardin 3.9.2026 15:15 1.000 TL
156 2020 Man MINIBUS TGE 5.180 L416 S 16+1 İstanbul 3.9.2026 15:30 1.000 TL
157 2025 Togg T10X V2 RWD UZUN MENZIL 160KW Antalya 3.9.2026 15:30 1.000 TL
158 2025 Ford EXPLORER SELECT 125KW AT İzmir 3.9.2026 15:30 1.000 TL
159 2011 Volkswagen PASSAT 2.0 TDI Aksaray 3.9.2026 15:30 1.000 TL
160 2023 Renault MEGANE SEDAN 1.3 TCE Batman 3.9.2026 15:30 1.000 TL
161 2026 Opel CORSA 1.2 HYBRID 136 E-DCT6 GS İstanbul 3.9.2026 15:30 1.000 TL
162 2024 Renault TALIANT JOY 1.0 Adana 3.9.2026 15:30 1.000 TL
163 2020 Ford TRANSIT COURIER VAN 1.5 TDCI 75 İzmir 3.9.2026 15:30 1.000 TL
164 2019 Volkswagen POLO 1.0 TSI 95 COMFORTLINE DSG İstanbul 3.9.2026 15:30 1.000 TL
165 2025 Renault CLIO EVOLUTION 1.0 TCE X-TRONIC 90 Kırşehir 3.9.2026 15:30 1.000 TL
166 2021 Renault CLIO JOY 1.0 TCE X-TRONIC 90 Muğla 3.9.2026 15:30 1.000 TL
167 2008 Isuzu NKR KAMYONET WIDE LX İzmir 3.9.2026 15:30 1.000 TL
168 2019 Renault CLIO HB JOY 1.2 16V 75 İstanbul 3.9.2026 15:30 1.000 TL
169 2023 Renault MEGANE E-TECH ICONIC EV60 220 Ankara 3.9.2026 15:30 1.000 TL
170 2016 Skoda OCTAVIA 1.0 TSI 115 STYLE DSG Samsun 3.9.2026 15:30 1.000 TL
171 2016 Volkswagen TIGUAN 1.4 TSI Bolu 3.9.2026 15:30 1.000 TL
172 2025 Fiat/Tofaş EGEA CROSS LIMITED 1.6 M.JET 130DCTGSR TRAC+ Antalya 3.9.2026 15:30 1.000 TL
173 2024 Citroen C3 FEEL BOLD 1.2 PURETECH Kocaeli 3.9.2026 15:30 1.000 TL
174 2020 Audi A4 40 2.0 TDI 190 ADVANCED S TRONIC PI Afyonkarahisar 3.9.2026 15:30 1.000 TL
175 2016 Fiat/Tofaş DOBLO COMBI 1.3 M.JET 90 E5 SAFELINE Hatay 3.9.2026 15:30 1.000 TL
176 2012 Man CEKICI TGX 18.400 4x2 BLS XLX İstanbul 3.9.2026 15:30 1.000 TL
177 1999 Fiat/Tofaş SIENA 1.6 Eskişehir 3.9.2026 15:30 1.000 TL
178 2021 Motorsiklet EGE 50 İstanbul 3.9.2026 15:30 1.000 TL
179 2025 Honda PCX 125 DX Antalya 3.9.2026 15:30 1.000 TL
180 2025 Renault MEGANE SEDAN TOUCH 1.3 TCE EDC 140 FAZ2 Zonguldak 3.9.2026 15:30 1.000 TL
181 2025 Ford TOURNEO COURIER 1.0 P 125 AT TITANIUM Gaziantep 3.9.2026 15:30 1.000 TL
182 2025 Volvo EX40 SINGLE MOTOR EXTENDED RANGE ULTRA 185KW Muğla 3.9.2026 15:30 1.000 TL
183 2026 Renault DUSTER TECHNO TURBO TCE EDC 145 İzmir 3.9.2026 15:30 1.000 TL
184 2023 Motorsiklet RAIDER Muğla 3.9.2026 15:30 1.000 TL
185 2019 Peugeot 301 ALLURE 1.5 BLUEHDI 100 Diyarbakır 3.9.2026 15:30 1.000 TL
186 2005 Motorsiklet MONSTER 620 DARK İstanbul 3.9.2026 15:30 1.000 TL
187 2012 Nissan JUKE 1.6 TEKNA 4X2 CVT İstanbul 3.9.2026 15:30 1.000 TL
188 2025 Motorsiklet ELIMINATOR 500 İstanbul 3.9.2026 15:30 1.000 TL
189 2025 Renault MEGANE SEDAN TOUCH 1.3 TCE EDC 140 FAZ2 Aydın 3.9.2026 15:30 1.000 TL
190 2024 Motorsiklet 250 NK Kocaeli 3.9.2026 15:30 1.000 TL
191 2023 Fiat/Tofaş EGEA CROSS LIMITED 1.5 T4 HIBRIT 130 AT İstanbul 3.9.2026 15:30 1.000 TL
192 2022 Ford CEKICI CARGO 1842T Mardin 3.9.2026 15:30 1.000 TL
193 2018 Volkswagen POLO 1.0 TSI 95 HIGHLINE DSG İstanbul 3.9.2026 15:30 1.000 TL
194 2019 Motorsiklet X-MAX 250 Ankara 3.9.2026 15:30 1.000 TL
195 2023 Renault CLIO EQUILIBRE 1.0 TCE X-TRONIC 90 İstanbul 3.9.2026 15:30 1.000 TL
196 2017 Volkswagen POLO 1.0 TSI 95 COMFORTLINE DSG Erzurum 3.9.2026 15:30 1.000 TL
197 2020 Opel ASTRA HB 1.2 110 MT6 EDITION Eskişehir 3.9.2026 15:30 1.000 TL
198 2021 Ford CARGO 1842T Adana 3.9.2026 15:30 1.000 TL
199 1990 Renault 12 TOROS SW Erzincan 3.9.2026 15:30 1.000 TL
200 2024 Motorsiklet TURISMO 50 JJ50QT-3 Kahramanmaraş 3.9.2026 15:30 1.000 TL
201 2024 Motorsiklet GRACE 50 İstanbul 3.9.2026 15:30 1.000 TL
202 2018 Motorsiklet Lifan Lion 100 Giresun 3.9.2026 15:30 1.000 TL
203 2024 Motorsiklet AZURE 50 Eskişehir 3.9.2026 15:30 1.000 TL
204 2003 Kia BONGO KAMYONET K2700 II DLX Sakarya 3.9.2026 15:30 1.000 TL
205 2017 Motorsiklet 150 MR VULTURE Antalya 3.9.2026 15:30 1.000 TL
206 2023 Motorsiklet TK 03 Bursa 3.9.2026 15:30 1.000 TL
207 1992 Fiat/Tofaş ŞAHİN 1.6 Antalya 3.9.2026 15:30 1.000 TL
208 2008 Ford T. CONNECT KOMBI T220S 1.8 TDCi (75) İstanbul 3.9.2026 15:30 1.000 TL
209 2023 Motorsiklet CAPPUCINO 125 İstanbul 3.9.2026 15:30 1.000 TL
210 2012 Ford FIESTA TITANIUM X 5K 1.4 TDCI Eskişehir 3.9.2026 15:30 1.000 TL
211 2016 Volkswagen GOLF 1.6 TDI BMT 110 HIGHLINE DSG Tekirdağ 3.9.2026 15:30 1.000 TL
212 2007 Opel CORSA 1.3 CDTi 5 KAPI COSMO İstanbul 3.9.2026 15:30 1.000 TL
213 2012 Renault CEKICI PREMIUM 460.18 T 4x2 Kayseri 3.9.2026 15:30 1.000 TL
214 1997 Volkswagen POLO 1.6 4 KAPI Ankara 3.9.2026 15:30 1.000 TL
215 2018 Honda ACTİVA S Bursa 3.9.2026 15:30 1.000 TL
216 2013 Mercedes CEKICI AXOR 1840 LS E5 Gaziantep 3.9.2026 15:30 1.000 TL
217 2006 Honda CR-V 2.0 i VTEC EXECUTIVE İstanbul 3.9.2026 15:30 1.000 TL
218 2004 Ford FOCUS C-MAX 1.6i TREND 5 KAPI İstanbul 3.9.2026 15:30 1.000 TL
219 2016 Citroen C-ELYSEE 1.6 HDI 92 CONFORT Kahramanmaraş 3.9.2026 15:30 1.000 TL
220 2025 Byd SEAL DESIGN İstanbul 3.9.2026 15:30 1.000 TL
221 2024 Honda NSS250A FORZA 250 Denizli 3.9.2026 15:30 1.000 TL
222 2009 Ford T.CONNECT KOMBI 1.8 TDCi (110) Nevşehir 3.9.2026 15:30 1.000 TL
223 2003 Peugeot PARTNER 1.9D Kayseri 3.9.2026 15:30 1.000 TL
224 2008 Volkswagen POLO 1.4 TDI (70) TRENDLINE Ankara 3.9.2026 15:30 1.000 TL
225 1999 Nissan SKYSTAR 4X2 Çankırı 3.9.2026 15:30 1.000 TL
226 2018 Motorsiklet TRENDY 50 Kayseri 3.9.2026 15:30 1.000 TL
227 2026 Bmw iX1 EDRIVE20 SPORT LINE İstanbul 3.9.2026 15:30 1.000 TL
228 2025 Motorsiklet ROSA 50 Zonguldak 3.9.2026 15:30 1.000 TL
229 2001 Fiat/Tofaş BRAVA 1.6 ELX Uşak 3.9.2026 15:30 1.000 TL
230 1996 Renault R 1339 Antalya 3.9.2026 15:30 1.000 TL
231 2024 Honda PCX 125 Manisa 3.9.2026 15:30 1.000 TL
232 2023 Dacia DUSTER 1.0 Ankara 3.9.2026 15:30 1.000 TL
233 2024 Byd ATTO 3 Balıkesir 3.9.2026 15:30 1.000 TL
234 2024 Motorsiklet REALE 125 X Mersin 3.9.2026 15:30 1.000 TL
235 2021 Dacia DUSTER 1.3 TCE Ordu 3.9.2026 15:30 1.000 TL
236 2024 Motorsiklet RZ250 S İstanbul 3.9.2026 15:30 1.000 TL
237 2023 Suzuki UB 125 L İzmir 3.9.2026 15:30 1.000 TL
238 1995 Renault 9 GTE BROADWAY 1.4 Diyarbakır 3.9.2026 15:30 1.000 TL
239 2008 Bmw X3 2.0d Kocaeli 3.9.2026 15:30 1.000 TL
240 1999 Ford FOCUS 1.6i SEDAN İzmir 3.9.2026 15:30 1.000 TL
241 2016 Renault FLUENCE 1.5 DCI Şehir Seç 3.9.2026 15:30 1.000 TL
242 2007 Fiat/Tofaş ALBEA 1.3 MJET Aksaray 3.9.2026 15:30 1.000 TL
243 2024 Motorsiklet EXON 125 İzmir 3.9.2026 15:30 1.000 TL
244 2007 Chevrolet AVEO SEDAN 1.4 Ankara 3.9.2026 15:30 1.000 TL
245 2013 Renault FLUENCE 1.5 DCI 90 İstanbul 3.9.2026 15:30 1.000 TL
246 2024 Ds DS 7 1.5 BLUEHDI 130 Diyarbakır 3.9.2026 15:30 1.000 TL
247 2015 Toyota COROLLA 1.4 D4D Mardin 3.9.2026 15:30 1.000 TL
248 2026 Renault CLIO HB 1.0 TCE X-TRONIC 90 Samsun 3.9.2026 15:30 1.000 TL
249 2014 Motorsiklet Salcano WOLF 125 Ankara 3.9.2026 15:30 TL
250 2014 Volkswagen JETTA 1.6 TDI Adıyaman 3.9.2026 15:30 1.000 TL
251 2015 Volkswagen TRANSPORTER CAMLIVAN 2.0 TDI Mardin 3.9.2026 15:30 1.000 TL
252 2023 Suzuki GSX-R 125 İzmir 3.9.2026 15:30 1.000 TL
253 1991 Fiat/Tofaş DOGAN 1.6 Denizli 3.9.2026 15:30 1.000 TL
254 2006 Lada VEGA SEDAN 1.6 İstanbul 3.9.2026 15:30 1.000 TL
255 2023 Motorsiklet CAPPUCINO 125 İzmir 3.9.2026 15:30 1.000 TL
256 2016 Nissan NAVARA 2.3 DCI Ankara 3.9.2026 15:30 1.000 TL
257 2016 Fiat/Tofaş DOBLO COMBI 1.6 M.JET Kocaeli 3.9.2026 15:30 1.000 TL
258 1990 Fiat/Tofaş DOGAN Uşak 3.9.2026 15:30 1.000 TL
259 2009 Dorse/Römork Schmitz Cargobull FRİGORİFİK YARI RÖMORK Şehir Seç 3.9.2026 15:30 TL
260 2025 Honda NSS250A FORZA 250 Gaziantep 3.9.2026 15:30 1.000 TL
261 2012 Bmc PRO 522 6x2 Şehir Seç 3.9.2026 15:30 1.000 TL
262 2001 Honda CIVIC 1.6 iES Zonguldak 3.9.2026 15:30 1.000 TL
263 2016 Fiat/Tofaş EGEA 1.6 E-TORQ Şehir Seç 3.9.2026 15:30 1.000 TL
264 1995 Renault 12 TSW Balıkesir 3.9.2026 15:30 1.000 TL
265 2023 Motorsiklet BITTER 50 PRO İzmir 3.9.2026 15:30 1.000 TL
266 2024 Motorsiklet APS2 Balıkesir 3.9.2026 15:30 1.000 TL
267 2022 Motorsiklet PULSAR RS 200 Ankara 3.9.2026 15:30 1.000 TL
268 2010 Toyota COROLLA SEDAN 1.6 Düzce 3.9.2026 15:30 1.000 TL
269 1999 Toyota COROLLA 1.3 BASE Ordu 3.9.2026 15:30 1.000 TL
270 2015 Motorsiklet VESPA GTS 250 Trabzon 3.9.2026 15:30 1.000 TL
271 2010 Iveco EUROCARGO 150 E 21 Erzurum 3.9.2026 15:30 1.000 TL
272 1993 Fiat/Tofaş ŞAHIN 1.6 Aydın 3.9.2026 15:30 1.000 TL
273 1998 Mazda 626 2.0i SEDAN Erzurum 3.9.2026 15:30 1.000 TL
274 2017 Nissan JUKE 1.5 DCI SPECIAL EDITION Mersin 3.9.2026 15:30 1.000 TL
275 2015 Dacia DOKKER AMBIANCE 1.5 DCI 90 İstanbul 3.9.2026 15:30 1.000 TL
276 2005 Citroen BERLINGO X 1.9D COMBI Ankara 3.9.2026 15:30 1.000 TL
277 2004 Volkswagen TRANSPORTER CITYVAN 2.5 Ankara 3.9.2026 15:30 1.000 TL
278 2008 Toyota COROLLA SEDAN 1.6 İstanbul 3.9.2026 15:30 1.000 TL
279 2026 Motorsiklet 250 SR Ankara 3.9.2026 15:30 1.000 TL
280 2004 Ford FOCUS 1.6 GHIA SEDAN Malatya 3.9.2026 15:30 1.000 TL
281 2023 Motorsiklet 250 NK İzmir 3.9.2026 15:30 1.000 TL
282 2023 Ford TOURNEO COURIER KOMBI 1.5 TDCI Mersin 3.9.2026 15:30 1.000 TL
283 2015 Motorsiklet X MAX 250 İzmir 3.9.2026 15:30 1.000 TL
284 1993 Fiat/Tofaş SAHIN 1.6 Çanakkale 3.9.2026 15:30 1.000 TL
285 2004 Renault MASTER 2.5 DCI Bursa 3.9.2026 15:30 1.000 TL
286 2015 Ford TRANSIT Ordu 3.9.2026 15:30 1.000 TL
287 2008 Mitsubishi CANTER KAMYONET FE 711 Erzurum 3.9.2026 15:30 1.000 TL
288 2006 Mercedes ACTROS 1844 Denizli 3.9.2026 15:30 1.000 TL
289 2025 Honda ADV 350A İstanbul 3.9.2026 15:30 1.000 TL
290 2011 Audi A3 SPORTBACK 1.4 TFSI Bursa 3.9.2026 15:30 1.000 TL
291 2017 Skoda OCTAVIA 1.6 TDI Elazığ 3.9.2026 15:30 1.000 TL
292 2021 Motorsiklet CAPPUCINO 50 İstanbul 3.9.2026 15:30 1.000 TL
293 2007 Fiat/Tofaş ALBEA SOLE 1.4 DYNAMIC Muğla 3.9.2026 15:30 1.000 TL
294 2012 Ford TRANSIT 16+1 Diyarbakır 3.9.2026 15:30 1.000 TL
295 2008 Honda CIVIC HB 1.8 Kocaeli 3.9.2026 15:30 1.000 TL
296 2004 Renault MEGANE 1,6 DYNAMIQUE Sivas 3.9.2026 15:30 1.000 TL
297 2024 Fiat/Tofaş SCUDO 1.5 MULTIJET 120 Antalya 3.9.2026 15:30 1.000 TL
298 2026 Fiat/Tofaş EGEA SEDAN 1.6 MJET 130 Van 3.9.2026 15:30 1.000 TL
299 1979 Fiat/Tofaş MURAT 131 1.3 Şehir Seç 3.9.2026 15:30 1.000 TL
300 2004 Ford FOCUS 1.6i COMFORT SEDAN Şehir Seç 3.9.2026 15:30 1.000 TL
301 2024 Motorsiklet KRV 200 TCS İstanbul 3.9.2026 15:30 1.000 TL
302 2002 Honda HR-V 1.6 Amasya 3.9.2026 15:30 1.000 TL
303 2001 Toyota HILUX ÇİFT KABİN Şehir Seç 3.9.2026 15:30 1.000 TL
304 2023 Motorsiklet GRACE 202 İstanbul 3.9.2026 15:30 1.000 TL
305 2023 Motorsiklet PRIDE 125 İstanbul 3.9.2026 15:30 1.000 TL
306 2010 Fiat/Tofaş DOBLO COMBI 1.3 MULTIJET Tokat 3.9.2026 15:30 1.000 TL
307 2021 Toyota COROLLA 1.5 MULTIDRIVE S Osmaniye 3.9.2026 15:30 1.000 TL
308 1994 Fiat/Tofaş DOGAN SLX 1.6 Zonguldak 3.9.2026 15:30 1.000 TL
309 2016 Volkswagen PASSAT 1.6 TDI BMT 120 DSG Kahramanmaraş 3.9.2026 15:30 1.000 TL
310 2011 Nissan QASHQAI 1.6 VISIA 4x2 İzmir 3.9.2026 15:30 1.000 TL
311 2011 Renault MEGANE III HB EXPRESSION 1.5 DCI 105 İstanbul 3.9.2026 15:30 1.000 TL
312 2019 Fiat/Tofaş EGEA EASY 1.4 FIRE 95 Aksaray 3.9.2026 15:30 1.000 TL
313 2018 Fiat/Tofaş EGEA 1.3 M.JET 95 Hatay 3.9.2026 15:30 1.000 TL
314 2025 Dacia SANDERO STEPWAY 1.0 TCE 90 CVT Diyarbakır 3.9.2026 15:30 1.000 TL
315 1996 Fiat/Tofaş KARTAL 1.6 Bursa 3.9.2026 15:30 1.000 TL
316 2024 Motorsiklet MAX T EASY Bursa 3.9.2026 15:30 1.000 TL
317 2012 Toyota YARIS 1.0 LIFE Tekirdağ 3.9.2026 15:30 1.000 TL
318 2015 Mitsubishi L200 CIFT KABIN KAMYONET 4x2 Batman 3.9.2026 15:30 1.000 TL
319 2021 Renault CLIO 1.0 Kocaeli 3.9.2026 15:30 1.000 TL
320 2021 Motorsiklet NEV 50 Kocaeli 3.9.2026 15:30 1.000 TL
321 2025 Byd HAN 380KW Afyonkarahisar 3.9.2026 15:30 1.000 TL
322 2020 Bmw 320i SEDAN 1.6 Bursa 3.9.2026 15:30 1.000 TL
323 2024 Motorsiklet SRK 125 R Mersin 3.9.2026 15:30 1.000 TL
324 1991 Renault R9 BROADWAY L423 Kastamonu 3.9.2026 15:30 1.000 TL
325 2017 Peugeot 2008 1.6 BLUEHDI Mersin 3.9.2026 15:30 1.000 TL
326 2025 Byd SEAL U DM-i Elazığ 3.9.2026 15:30 1.000 TL
327 1998 Hyundai H100 2.5 Muğla 3.9.2026 15:30 1.000 TL
328 2025 Fiat/Tofaş DUCATO VAN Çorum 3.9.2026 15:30 1.000 TL
329 2006 Toyota COROLLA TERRA 1.6 Ankara 3.9.2026 15:30 1.000 TL
330 2015 Seat IBIZA 1.2 TSI Çanakkale 3.9.2026 15:30 1.000 TL
331 1994 Renault R9 BRODWAY 1,4 GTE Manisa 3.9.2026 15:30 1.000 TL
332 2023 Motorsiklet SMART 50 Bartın 3.9.2026 15:30 1.000 TL
333 2025 Motorsiklet 125 DRIFT L CBS Şehir Seç 3.9.2026 15:30 1.000 TL
334 2000 Hyundai ACCENT 1.3 LX Bursa 3.9.2026 15:30 1.000 TL
335 2023 Motorsiklet VSM Samsun 3.9.2026 15:30 1.000 TL
336 2020 Dacia LOGAN 1.5 DCI Antalya 3.9.2026 15:30 1.000 TL
337 2000 Hyundai ACCENT 1.3 Bilecik 3.9.2026 15:30 1.000 TL
338 2014 Opel CORSA 1.2i TWINPORT ESSENTIA Ankara 3.9.2026 15:30 1.000 TL
339 2019 Fiat/Tofaş EGEA 1.3 M.JET 95 Şehir Seç 3.9.2026 15:30 1.000 TL
340 2017 Skoda OCTAVIA 1.6 TDI İstanbul 3.9.2026 15:30 1.000 TL
341 2012 Hyundai i30 1.6 CRDI ELITE OV Ankara 3.9.2026 15:30 1.000 TL
342 1992 Lada SAMARA 1.5 Denizli 3.9.2026 15:30 1.000 TL
343 2022 Opel CROSSLAND 1.2 Kayseri 3.9.2026 15:30 1.000 TL
344 2020 Opel CORSA 1.2 75 Sivas 3.9.2026 15:30 1.000 TL
345 2018 Honda PCX 125 Kayseri 3.9.2026 15:30 1.000 TL
346 2026 Peugeot 2008 1,2 İstanbul 3.9.2026 15:30 1.000 TL
347 2023 Fiat/Tofaş EGEA CROSS 1.6 M.JET Gümüşhane 3.9.2026 15:30 1.000 TL
348 2025 Tesla MODEL Y Muğla 3.9.2026 15:30 1.000 TL
349 2011 Bmw X5 XDRIVE Samsun 3.9.2026 15:30 1.000 TL
350 2022 Bmw 218i ACTIVE TOURER 1.5 136 İstanbul 3.9.2026 15:30 1.000 TL
351 2017 Honda HONDA WW150 İstanbul 3.9.2026 15:30 1.000 TL
352 1989 Renault R 1339 Hatay 3.9.2026 15:30 1.000 TL
353 2014 Dacia LODGY 1.5 DCI Hatay 3.9.2026 15:30 1.000 TL
354 2023 Honda CL 250A Elazığ 3.9.2026 15:30 1.000 TL
355 2017 Skoda RAPID 1.0 TSI Ordu 3.9.2026 15:30 1.000 TL
356 2024 Volkswagen CADDY 2.0 TDI Konya 3.9.2026 15:30 1.000 TL
357 2022 Renault CLIO 1,0 TCE Aksaray 3.9.2026 15:30 1.000 TL
358 2021 Dacia DUSTER 1.5 BLUEDCI Erzurum 3.9.2026 15:30 1.000 TL
359 2023 Peugeot 408 1.2 PURETECH 130 Manisa 3.9.2026 15:30 1.000 TL
360 2025 Byd SEAL Sakarya 3.9.2026 15:30 1.000 TL
361 2017 Renault SYMBOL 1.5 DCI İzmir 3.9.2026 15:30 1.000 TL
362 2020 Fiat/Tofaş DOBLO COMBI 1.3 M.JET Diyarbakır 3.9.2026 15:30 1.000 TL
363 2025 Motorsiklet NMAX 125 Kocaeli 3.9.2026 15:30 1.000 TL
364 2016 Fiat/Tofaş FIORINO COMBI 1.3 M.JET Konya 3.9.2026 15:30 1.000 TL
365 1989 Fiat/Tofaş DOGAN 1.6 Erzurum 3.9.2026 15:30 1.000 TL
366 2011 Opel CORSA 1.2İ TWINPORT Kocaeli 3.9.2026 15:30 1.000 TL
367 2022 Motorsiklet DOLPHIN 125 Denizli 3.9.2026 15:30 1.000 TL
368 2007 Renault KANGOO MULTIX 1.5 DCI EXPRESSION Muğla 3.9.2026 15:30 1.000 TL
369 2016 Fiat/Tofaş DOBLO 1.3 ECOJET 90 Mersin 3.9.2026 15:30 1.000 TL
370 2000 Fiat/Tofaş MAREA 1.6 Kastamonu 3.9.2026 15:30 1.000 TL
371 2006 Citroen C5 SX 2.0 HDI Kocaeli 3.9.2026 15:30 1.000 TL
372 2023 Renault CLIO 1.0 TCE X-TRONIC 90 Malatya 3.9.2026 15:30 1.000 TL
373 2026 Bmw R 1300 GS Bursa 3.9.2026 15:30 1.000 TL
374 2015 Mercedes A 180 CDI 1.5 Sivas 3.9.2026 15:30 1.000 TL
375 2015 Mercedes AXOR 1840 LS Mardin 3.9.2026 15:30 1.000 TL
376 2024 Renault DUSTER 1.2 İzmir 3.9.2026 15:30 1.000 TL
377 2025 Honda NSS250A (FORZA 250) Şehir Seç 3.9.2026 15:30 1.000 TL
378 1993 Fiat/Tofaş DOĞAN 1.6 Burdur 3.9.2026 15:30 1.000 TL
379 2005 Opel ASTRA HB 1.6i Van 3.9.2026 15:30 1.000 TL
380 2022 Renault MASTER PANELVAN L2H2 11M3 150 D-FULL Şehir Seç 3.9.2026 15:30 1.000 TL
381 2023 Skoda OCTAVIA 1.5 TSI Ankara 3.9.2026 15:30 1.000 TL
382 2019 Isuzu NPR 10 LONG KAMYON Manisa 3.9.2026 15:30 1.000 TL
383 2024 Renault DUSTER 1.6 E-TECH FULL HYBRID 145 Nevşehir 3.9.2026 15:30 1.000 TL
384 2024 Dacia SANDERO STEPWAY 1.0 TCE Mersin 3.9.2026 15:30 1.000 TL
385 2026 Toyota COROLLA 1.5 İzmir 3.9.2026 15:30 1.000 TL
386 2010 Hyundai ACCENT ERA 1.6 SELECT İstanbul 3.9.2026 15:30 1.000 TL
387 2013 Opel ASTRA HB 1.4 Antalya 3.9.2026 15:30 1.000 TL
388 2013 Toyota HILUX 2,5 4X4 Düzce 3.9.2026 15:30 1.000 TL
389 2013 Ford FOCUS 1,6 TDCİ Kayseri 3.9.2026 15:30 1.000 TL
390 2003 Fiat/Tofaş DOBLO 1.9 Niğde 3.9.2026 15:30 1.000 TL
391 2025 Motorsiklet SRK 125 R Ankara 3.9.2026 15:30 1.000 TL
392 2020 Honda HONDA SPACY ALPHA Muğla 3.9.2026 15:30 1.000 TL
393 1992 Renault BROADWAY 1.4 Muğla 3.9.2026 15:30 1.000 TL
394 2026 Bmw 520İ İstanbul 3.9.2026 15:30 1.000 TL
395 2017 Ford TRANSIT CUSTOM Hatay 3.9.2026 15:30 1.000 TL
396 2025 Mercedes CEKICI ACTROS İzmir 3.9.2026 15:30 1.000 TL
397 1996 Renault 19 EUROPA 1.4 RN Ankara 3.9.2026 15:30 1.000 TL
398 2020 Honda CIVIC 1.6 125 OV Balıkesir 3.9.2026 15:30 1.000 TL
399 2017 Motorsiklet TMAX 530 İzmir 3.9.2026 15:30 1.000 TL
400 2016 Bmw 418i GRAN COUPE 1.5 (136) Adana 3.9.2026 15:30 1.000 TL
401 2014 Opel ASTRA HB 1.4 (140) Kocaeli 3.9.2026 15:30 1.000 TL
402 2020 Iveco DAILY SASI KAMYONET 35 C 16 İstanbul 3.9.2026 15:30 1.000 TL
403 2009 Volkswagen TIGUAN 1.4 TSI (150) Aydın 3.9.2026 15:30 1.000 TL
404 2026 Renault CLIO 1.0 HB Antalya 3.9.2026 15:30 1.000 TL
405 2016 Fiat/Tofaş EGEA 1.4 FIRE 95 Erzurum 3.9.2026 15:30 1.000 TL
406 2025 Ford FOCUS 1.5 Bursa 3.9.2026 15:30 1.000 TL
407 2026 Opel CORSA 1.2 100 İstanbul 3.9.2026 15:30 1.000 TL
408 2026 Fiat/Tofaş EGEA 1,6 MULTİJET Antalya 3.9.2026 15:30 1.000 TL
409 2021 Fiat/Tofaş EGEA SEDAN 1.3 M.JET 95 Mersin 3.9.2026 15:30 1.000 TL
410 2012 Ford FIESTA TITANIUM 1.4 TDCi Çorum 3.9.2026 15:30 1.000 TL
411 2023 Fiat/Tofaş SCUDO VAN MAXI BUSINESS 2.0 145 Ankara 3.9.2026 15:30 1.000 TL
412 2024 Ford PUMA 1,0 ECOBOOST Antalya 3.9.2026 15:30 1.000 TL
413 2025 Audi A6 Antalya 3.9.2026 15:30 1.000 TL
414 2015 Honda CR-V 1.6 DIZEL Tokat 3.9.2026 15:30 1.000 TL
415 2021 Fiat/Tofaş DUCATO 2.3 140 İzmir 3.9.2026 15:30 1.000 TL
416 2023 Mercedes ACTROSS 1845 LS Ankara 3.9.2026 15:30 1.000 TL
417 2019 Motorsiklet 400 NK İstanbul 3.9.2026 15:30 1.000 TL
418 2014 Renault FLUENCE JOY 1.5 DCI 90 Hatay 3.9.2026 15:30 1.000 TL
419 2014 Dacia DOKKER COMBI STEPWAY 1.5 DCI Balıkesir 3.9.2026 15:30 1.000 TL
420 2004 Peugeot BOXER 330 M 2.2 HDI VAN Tokat 3.9.2026 15:30 1.000 TL
421 2019 Fiat/Tofaş EGEA SEDAN 1.3 M.JET Antalya 3.9.2026 15:30 1.000 TL
422 2000 Volkswagen PASSAT 1.8 Erzurum 3.9.2026 15:30 1.000 TL
423 2013 Volkswagen CARAVELLE 2.0 TDI Şehir Seç 3.9.2026 15:30 1.000 TL
424 2024 Chery TIGGO 7 PRO Şehir Seç 3.9.2026 15:30 1.000 TL
425 2025 Mercedes SPRINTER 16+1 Denizli 3.9.2026 15:30 1.000 TL
426 2026 Toyota C-HR 1.8 HYBRID Şanlıurfa 3.9.2026 15:30 1.000 TL
427 2020 Dorse/Römork Schmitz Cargobull FRIGOFRİK TİP SOĞUTUCU İzmir 3.9.2026 15:30 TL
428 2016 Seat LEON 1.2 TSI İstanbul 3.9.2026 15:30 1.000 TL
429 2018 Honda CIVIC 1,6İ DTEC Malatya 3.9.2026 15:30 1.000 TL
430 2009 Renault MEGANE II SEDAN A.TIQUE 1.5 DCI Balıkesir 3.9.2026 15:30 1.000 TL
431 2024 Motorsiklet RAIDER 125 Ankara 3.9.2026 15:30 1.000 TL
432 2017 Renault MEGANE 1,6 Eskişehir 3.9.2026 15:30 1.000 TL
433 2004 Renault KANGOO AUTHENTIQUE 1.5 DCI Çankırı 3.9.2026 15:30 1.000 TL
434 1998 Opel ASTRA 1.4 SEDAN Balıkesir 3.9.2026 15:30 1.000 TL
435 2009 Hyundai GETZ 1.5 CRDi Balıkesir 3.9.2026 15:30 1.000 TL
436 2014 Renault CEKICI PREMIUM 460.18T İzmir 3.9.2026 15:30 1.000 TL
437 2010 Ford MONDEO 1.6i SEDAN İstanbul 3.9.2026 15:30 1.000 TL
438 2024 Motorsiklet CAPPUCINO 125 Batman 3.9.2026 15:30 1.000 TL
439 2024 Citroen C3 1.2 PURETECH İstanbul 3.9.2026 15:30 1.000 TL
440 2025 Ford TOURNEO COURIER 1.0 ECOBOOST İstanbul 3.9.2026 15:30 1.000 TL
441 2014 Audi A4 2.0 TDI Antalya 3.9.2026 15:30 1.000 TL
442 2016 Honda CIVIC 1.5 VTEC Denizli 3.9.2026 15:30 1.000 TL
443 2007 Ford TRANSIT 300 S MINIBUS Van 3.9.2026 15:30 1.000 TL
444 2024 Motorsiklet RAIDER 125 Mersin 3.9.2026 15:30 1.000 TL
445 2026 Peugeot 2008 ALLURE 1.2 HYBRID Çorum 3.9.2026 15:30 1.000 TL
446 2011 Ford FOCUS 1,6 TDCİ TITANIUM Bursa 3.9.2026 15:30 1.000 TL
447 1999 Opel ASTRA 1,6 GL İstanbul 3.9.2026 15:30 1.000 TL
448 2017 Fiat/Tofaş PRATICO KAMYONET 1.3 M.JET Kayseri 3.9.2026 15:30 1.000 TL
449 2021 Fiat/Tofaş EGEA 1,3 MULTİJET İzmir 3.9.2026 15:30 1.000 TL
450 2010 Renault MEGANE 3 HB AUTHENTIQUE 1.5 DCI Çorum 3.9.2026 15:30 1.000 TL
451 2022 Motorsiklet NMAX 125 Düzce 3.9.2026 15:30 1.000 TL
452 2012 Renault FLUENCE 1.5 DCI Diyarbakır 3.9.2026 15:30 1.000 TL
453 2012 Mercedes KAMYON 3340 K Trabzon 3.9.2026 15:30 1.000 TL
454 2016 Renault CLIO HB JOY 1.5 DCI Gaziantep 3.9.2026 15:30 1.000 TL
455 2024 Motorsiklet JUPITER 125 İstanbul 3.9.2026 15:30 1.000 TL
456 2011 Renault FLUENCE 1.5 DCI EXT. (85) Gaziantep 3.9.2026 15:30 1.000 TL
457 2024 Honda PCX 125 Antalya 3.9.2026 15:30 1.000 TL
458 2024 Honda PCX 125 Balıkesir 3.9.2026 15:30 1.000 TL
459 2022 Suzuki GSX-R125 Bursa 3.9.2026 15:30 1.000 TL
460 2012 Renault CLIO HB AUTHENTIQUE EDITION 1.5 DCI 65 E5 Afyonkarahisar 3.9.2026 15:30 1.000 TL
461 2013 Peugeot CITYSTAR 200 Şehir Seç 3.9.2026 15:30 1.000 TL
462 2020 Volvo S60 2.0 B5 AWD Ankara 3.9.2026 15:30 1.000 TL
463 2008 Renault MASTER MİNÜBÜS 16+1 Zonguldak 3.9.2026 15:30 1.000 TL
464 2024 Honda DIO 110 Kayseri 3.9.2026 15:30 1.000 TL
465 2025 Motorsiklet CG50 ULTRA Kırklareli 3.9.2026 15:30 1.000 TL
466 1993 Fiat/Tofaş ŞAHİN 1.6 Kayseri 3.9.2026 15:30 1.000 TL
467 2021 Honda DİO 110 Antalya 3.9.2026 15:30 1.000 TL
468 2025 Motorsiklet PS3 50 CC Kayseri 3.9.2026 15:30 1.000 TL
469 2004 Citroen XSARA 1.4 HDİ Eskişehir 3.9.2026 15:30 1.000 TL
470 2007 Opel CORSA 1.4i TWİNPORT ENJOY Ankara 3.9.2026 15:30 1.000 TL
471 2012 Fiat/Tofaş DOBLO COMBI 1.6 M.JET 105 ELEGANCE Ankara 3.9.2026 15:30 1.000 TL
472 2016 Renault CLIO HB 1.5 DCI 75 Ankara 3.9.2026 15:30 1.000 TL
473 1998 Opel ASTRA 1.6 GLS Samsun 3.9.2026 15:30 1.000 TL
474 1993 Fiat/Tofaş DOGAN SLX Adıyaman 3.9.2026 15:30 1.000 TL
475 2012 Mitsubishi PAJERO 3.2 DID OV Elazığ 3.9.2026 15:30 1.000 TL
476 2020 Kia BONGO TEK KABIN KAMYONET 2.5 Aydın 3.9.2026 15:30 1.000 TL
477 2025 Citroen C4 X 1.2 PURETECH 130 Ankara 3.9.2026 15:30 1.000 TL
478 2021 Ford TRANSIT 410L VAN 170 AMBULANS Ankara 3.9.2026 15:30 1.000 TL
479 2016 Opel ASTRA HB 1.6 DIZEL 136 Diyarbakır 3.9.2026 15:30 1.000 TL
480 2016 Motorsiklet MT 25 Kocaeli 3.9.2026 15:30 1.000 TL
481 2024 Motorsiklet CHIA 125 PRO Balıkesir 3.9.2026 15:30 1.000 TL
482 2023 Motorsiklet VESPA GTS 300 İstanbul 3.9.2026 15:30 1.000 TL
483 2026 Fiat/Tofaş EGEA 1,6 MULTİJET Ordu 3.9.2026 15:30 1.000 TL
484 2001 Fiat/Tofaş DOBLO 1.2 ELX Muğla 3.9.2026 15:30 1.000 TL
485 2009 Renault SYMBOL 1,5 DCİ AUTHENTIQUE Giresun 3.9.2026 15:30 1.000 TL
486 2024 Kgmobılıty MUSSO GRAND D2.2 4x2 Bolu 3.9.2026 15:30 1.000 TL
487 2022 Renault MEGANE SEDAN 1.3 TCE EDC 140 İzmir 3.9.2026 15:30 1.000 TL
488 2011 Fiat/Tofaş LİNEA 1.3 M.JET (90) İstanbul 3.9.2026 15:30 1.000 TL
489 2015 Mazda 3 1.5 İstanbul 3.9.2026 15:30 1.000 TL
490 2019 Hyundai TUCSON 1.6 CRDİ Ordu 3.9.2026 15:30 1.000 TL
491 2018 Peugeot 308 1.6 BLUEHDI 120 Diyarbakır 3.9.2026 15:30 1.000 TL
492 2021 Hyundai BAYON 1.4 MPI 100 Kahramanmaraş 3.9.2026 15:30 1.000 TL
493 2015 Fiat/Tofaş FİORİNO CARGO 1.3 M.JET İzmir 3.9.2026 15:30 1.000 TL
494 2022 Honda PCX 125 İstanbul 3.9.2026 15:30 1.000 TL
495 2024 Opel CORSA 1.2 100 Hatay 3.9.2026 15:30 1.000 TL
496 2019 Audi A3 SPORTBACK 30 1.0 TFSI Şehir Seç 3.9.2026 15:30 1.000 TL
497 2020 Renault MEGANE SEDAN JOY 1.5 BLUEDCI Diyarbakır 3.9.2026 15:30 1.000 TL
498 2020 Renault ZOE Manisa 3.9.2026 15:30 1.000 TL
499 2023 Motorsiklet PULSAR RS 200 Isparta 3.9.2026 15:30 1.000 TL
500 2009 Peugeot PARTNER TEPEE 1.6 HDI Ankara 3.9.2026 15:30 1.000 TL
501 2014 Mercedes A 180 CDI Adana 3.9.2026 15:30 1.000 TL
502 2014 Dacia DOKKER COMBI 1.5 DCI 90 Kahramanmaraş 3.9.2026 15:30 1.000 TL
503 2014 Bmw 420D COUPE Bursa 3.9.2026 15:30 1.000 TL
504 2013 Ford FIESTA 1.5 TDCI Samsun 3.9.2026 15:30 1.000 TL
505 2024 Motorsiklet X MAX 250 Tokat 3.9.2026 15:30 1.000 TL
506 2024 Honda NSS250A FORZA 250 İstanbul 3.9.2026 15:30 1.000 TL
507 2025 Motorsiklet 450 SR Balıkesir 3.9.2026 15:30 1.000 TL
508 1995 Fiat/Tofaş ŞAHİN 1.6 Antalya 3.9.2026 15:30 1.000 TL
509 2023 Bmw CE 04 İstanbul 3.9.2026 15:30 1.000 TL
510 2024 Motorsiklet SAFARI PRO Balıkesir 3.9.2026 15:30 1.000 TL
511 2025 Motorsiklet SHARK 125 Ordu 3.9.2026 15:30 1.000 TL
512 2019 Honda PCX 125 Antalya 3.9.2026 15:30 1.000 TL
513 2009 Ford FOCUS TITANIUM 1.6 TDCi (109) Konya 3.9.2026 15:30 1.000 TL
514 2014 Motorsiklet MT 07 Tekirdağ 3.9.2026 15:30 1.000 TL
515 2018 Motorsiklet X-MAX 125 ABS Çanakkale 3.9.2026 15:30 1.000 TL
516 2004 Fiat/Tofaş PALIO 1.3 MULTIJET ACTIVE Manisa 3.9.2026 15:30 1.000 TL
517 2011 Renault FLUENCE BUSINESS 1.5 DCI (85) Antalya 3.9.2026 15:30 1.000 TL
518 2014 Audi A3 SEDAN 1.6 TDI Kocaeli 3.9.2026 15:30 1.000 TL
519 2020 Motorsiklet XMAX 250 Ankara 3.9.2026 15:30 1.000 TL
520 2024 Motorsiklet RK 125 S İstanbul 3.9.2026 15:30 1.000 TL
521 2022 Motorsiklet DOMİNAR D 400 Ankara 3.9.2026 15:30 1.000 TL
522 2018 Renault MEGANE SEDAN 1.5 DCI İstanbul 3.9.2026 15:30 1.000 TL
523 2013 Opel ASTRA SEDAN 1.4 Kayseri 3.9.2026 15:30 1.000 TL
524 2020 Motorsiklet MT 07 Mersin 3.9.2026 15:30 1.000 TL
525 2023 Motorsiklet SK 100-5 Hatay 3.9.2026 15:30 1.000 TL
526 2014 Ford FIESTA 1.5 TDCI 75 Adana 3.9.2026 15:30 1.000 TL
527 2017 Volkswagen TIGUAN 1.6 TDI SCR BMT 115 HIGHLINE Diyarbakır 3.9.2026 15:30 1.000 TL
528 2016 Ford TRANSIT COURIER VAN 1.5 TDCİ 75 Ankara 3.9.2026 15:30 1.000 TL
529 2017 Volkswagen GOLF 1.6 TDI BMT 115 DSG Ankara 3.9.2026 15:30 1.000 TL
530 2019 Renault MEGANE SEDAN 1.6 16V 115 İzmir 3.9.2026 15:30 1.000 TL
531 2016 Ford FOCUS III MCA 1.5 TDCI Batman 3.9.2026 15:30 1.000 TL
532 2002 Ford FOCUS 1.6i COMFORT SEDAN Kütahya 3.9.2026 15:30 1.000 TL
533 2023 Motorsiklet PULSAR RS 200 Şehir Seç 3.9.2026 15:30 1.000 TL
534 2005 Skoda FABIA 1.4 TDI SPECIAL Kayseri 3.9.2026 15:30 1.000 TL
535 2017 Ford FOCUS III MCA 1.5 TDCI Bitlis 3.9.2026 15:30 1.000 TL
536 2015 Bmw 116d ED Eskişehir 3.9.2026 15:30 1.000 TL
537 2006 Opel ASTRA CLASSIC 1.6i SEDAN Şanlıurfa 3.9.2026 15:30 1.000 TL
538 2017 Ford FOCUS III 1.5 TDCI İstanbul 3.9.2026 15:30 1.000 TL
539 2024 Motorsiklet GPD155A Şehir Seç 3.9.2026 15:30 1.000 TL
540 2017 Mercedes AROCS Mardin 3.9.2026 15:30 1.000 TL
541 2013 Honda CIVIC SEDAN 1.6 125 ELEGANCE ECO (Y) Gaziantep 3.9.2026 15:30 1.000 TL
542 2001 Ford TRANSIT 100 V İstanbul 3.9.2026 15:30 1.000 TL
543 2025 Audi A6 40 2.0 TDI QUATTRO 204 ADVANCED STRONIC Antalya 3.9.2026 15:30 1.000 TL
544 2012 Man TGX 18.400 4X2 BLS XLX Aksaray 3.9.2026 15:30 1.000 TL
545 2022 Mercedes SPRINTER Muğla 3.9.2026 15:30 1.000 TL
546 2019 Dorse/Römork SCHMITZ DORSE Mersin 3.9.2026 15:30 1.000 TL
547 2013 Bmw 520d 2.0 Manisa 3.9.2026 15:30 1.000 TL
548 2016 Volkswagen GOLF 1.6 Antalya 3.9.2026 15:30 1.000 TL
549 2024 Motorsiklet DUCATI MULTISTRADA V2 Bursa 3.9.2026 15:30 1.000 TL
550 2008 Opel ASTRA 1.3 Ordu 3.9.2026 15:30 1.000 TL
551 2023 Toyota PROACE CITY 1.5 D 130 PASSION X-PACK A/T İstanbul 3.9.2026 16:30 1.000 TL
552 2011 Citroen C5 3 SXPK 2.0 HDI OV İstanbul 3.9.2026 16:30 250 TL
553 2023 Mg HS LUXURY 1.5T AT İstanbul 3.9.2026 16:30 1.000 TL
554 2025 Bmw 3.20i SEDAN 1.6 İstanbul 3.9.2026 16:30 2.625.500 TL
555 2026 Mercedes SPRINTER OKUL 16+1 PRO İstanbul 3.9.2026 16:30 1.000 TL
556 2023 Skoda FABIA 1.0 TSI 110 DSG PREMIUM İstanbul 3.9.2026 16:30 1.000 TL
557 2025 Hyundai BAYON FL 1.0 T-GDI 100 JUMP DCT İstanbul 3.9.2026 16:30 1.000 TL
558 2021 Fiat/Tofaş EGEA SEDAN EASY 1.3 M.JET Sakarya 3.9.2026 16:30 182.500 TL
559 2025 Motorsiklet 250 SR İstanbul 3.9.2026 16:30 29.750 TL
560 2017 Renault MEGANE SEDAN JOY 1.5 DCI İstanbul 3.9.2026 16:30 600.000 TL
561 2024 Motorsiklet APACHE RTR 200 4V E5 Kocaeli 3.9.2026 16:30 25.000 TL
562 2025 Motorsiklet 250 DUKE Mersin 3.9.2026 16:30 17.500 TL
563 2024 Motorsiklet FURY 110i Isparta 3.9.2026 16:30 1.000 TL
564 2021 Honda CIVIC 1.5 VTEC Denizli 3.9.2026 16:30 555.000 TL
565 2025 Renault TRAFIC 2,0 İzmir 3.9.2026 16:30 1.000 TL
566 2020 Fiat/Tofaş EGEA 1,4 FİRE Çanakkale 3.9.2026 16:30 1.000 TL
567 2025 Motorsiklet STRADA 125 Aydın 3.9.2026 16:30 1.000 TL
568 2022 Motorsiklet MT 07 Mersin 3.9.2026 16:30 1.500 TL
569 2014 Volkswagen PASSAT 1.6 TDI BMT İstanbul 3.9.2026 16:30 1.000 TL
570 2021 Motorsiklet VERANO 50 Isparta 3.9.2026 16:30 1.000 TL
571 2010 Opel CORSA 1.3 CDTi Antalya 3.9.2026 16:30 1.000 TL
572 2024 Suzuki UB 125L Manisa 3.9.2026 16:30 1.000 TL
573 2020 Motorsiklet BEVERLY İstanbul 3.9.2026 16:30 1.000 TL
574 2015 Volkswagen CC 1.4 TSI Adana 3.9.2026 16:30 1.000 TL
575 2022 Motorsiklet DASH 125 Trabzon 3.9.2026 16:30 1.000 TL
576 2011 Ford RANGER CIFT KABIN KAMYONET Şehir Seç 3.9.2026 16:30 1.000 TL
577 2006 Ford TRANSIT CONNECT 1,8 TDCİ Bursa 3.9.2026 16:30 1.000 TL
578 2007 Renault SYMBOL 1,5 DCİ AUTHENTIQUE İzmir 3.9.2026 16:30 1.000 TL
579 2004 Peugeot PARTNER 1,9 Bilecik 3.9.2026 16:30 25.000 TL
580 2018 Ford TOURNEO COURIER 1,5 TDCİ Ankara 3.9.2026 16:30 1.000 TL
581 1995 Renault R9 1,6 FAIRWAY Konya 3.9.2026 16:30 1.000 TL
582 2018 Fiat/Tofaş EGEA 1,6 MULTİJET Tokat 3.9.2026 16:30 1.000 TL
583 2011 Fiat/Tofaş FIORINO 1.3 MULTIJET ACTIVE Tekirdağ 3.9.2026 16:30 1.000 TL
584 1992 Fiat/Tofaş KARTAL L Afyonkarahisar 3.9.2026 16:30 1.000 TL
585 1997 Skoda FELICIA COMBI 1,3 Erzurum 3.9.2026 16:30 1.000 TL
586 2005 Honda CIVIC 1.6 ES VTEC 4 KAPI OV (Y) Düzce 3.9.2026 16:30 50.500 TL
587 2001 Volkswagen POLO 1.4 TDI TRENDLINE Ankara 3.9.2026 16:30 1.000 TL
588 2006 Dorse/Römork FRIGOFRIK TIP SO¦U. Mardin 3.9.2026 16:30 1.000 TL
589 2011 Fiat/Tofaş DOBLO COMBI 1.3 ECOJET 90 PREMIO Antalya 3.9.2026 16:30 20.000 TL
590 2023 Motorsiklet MONDIAL 125 DRIFT L CBS Osmaniye 3.9.2026 16:30 1.000 TL
591 2002 Skoda FABIA 1.4i ELEGANCE 101 Ankara 3.9.2026 16:30 1.000 TL
592 2024 Motorsiklet MONDIAL 125 SKUTY Ankara 3.9.2026 16:30 1.000 TL
593 2010 Honda CIVIC SEDAN 1.6 PREMIIUM OV (Y) Ankara 3.9.2026 16:30 150.000 TL
594 1998 Daewoo NUBIRA 2.0 CDX Ankara 3.9.2026 16:30 1.000 TL
595 1990 Renault 9 GTE BROADWAY Şanlıurfa 3.9.2026 16:30 1.000 TL
596 2005 Opel ASTRA HB 1.6i 16V ENJOY Rize 3.9.2026 16:30 50.500 TL
597 2023 Motorsiklet HONDA DIO Tokat 3.9.2026 16:30 8.000 TL
598 2007 Hyundai GETZ 1.4 START Sivas 3.9.2026 16:30 30.500 TL
599 2017 Mercedes AROCS 4142 B 8x4 E6 Antalya 3.9.2026 16:30 1.000 TL
600 2024 Motorsiklet HONDA CB125F İstanbul 3.9.2026 16:30 1.000 TL
601 2023 Motorsiklet RKS FRECCIA 150 Denizli 3.9.2026 16:30 1.000 TL
602 2025 Motorsiklet HONDA 125 İstanbul 3.9.2026 16:30 20.000 TL
603 2023 Renault CAPTUR ICON 1.3 MILD HYBRID EDC 140 İstanbul 3.9.2026 16:30 1.000 TL
604 2012 Ford TRANSIT 370L 13+1 MINIBUS (155) E4 GP Amasya 3.9.2026 16:30 20.000 TL
605 2023 Motorsiklet HONDA NSS250A FORZA 250 İstanbul 3.9.2026 16:30 5.500 TL
606 2009 Mitsubishi LANCER 1.5 INVITE OV İstanbul 3.9.2026 16:30 1.500 TL
607 2024 Motorsiklet SYM ADX 125 E5 İstanbul 3.9.2026 16:30 1.000 TL
608 2025 Motorsiklet KUBA TRENDY 50 (B94) Kocaeli 3.9.2026 16:30 1.000 TL
609 1996 Toyota COROLLA 1.6 XEi (Y) Ankara 3.9.2026 16:30 1.000 TL
610 2018 Chrysler RENEGADE 1.6 120 DDCT NIGHT EAGLE DIZEL E6 İstanbul 3.9.2026 16:30 145.000 TL
611 2025 Fiat/Tofaş EGEA SEDAN URBAN 1.6 M.JET 130 DCT GSR İstanbul 3.9.2026 16:30 746.000 TL
612 2012 Audi A3 SPORTBACK 1.6 İstanbul 3.9.2026 16:30 1.000 TL
613 2015 Volkswagen PASSAT 1.4 TSI ACT BMT 150 COMFORTLINE İstanbul 3.9.2026 16:30 1.000 TL
614 2011 Geely MK FAMILIA 1.5 COMFORT Antalya 3.9.2026 16:30 1.000 TL
615 2024 Toyota COROLLA HYBRID 1.8 DREAM E-CVT FL İstanbul 3.9.2026 16:30 1.500 TL
616 2011 Ford KUGA SELECTIVE 5K 2.0 TDCI 140 P.SHIFT İstanbul 3.9.2026 16:30 1.000 TL
617 2004 Peugeot 206 SW X-DESIGN 1.4 Denizli 3.9.2026 16:30 1.000 TL
618 2001 Bmw 520I 520 IA Erzurum 3.9.2026 16:30 1.000 TL
619 2020 Seat ATECA 1.6 TDI SCR 115 DSG S&S XCELLENCE Gaziantep 3.9.2026 16:30 500 TL
620 2017 Mercedes AROCS 4142 K 8X4 E6 Mersin 3.9.2026 16:30 3.000 TL
621 2022 Toyota COROLLA 1.5 DREAM MULTIDRIVE S İstanbul 3.9.2026 16:30 1.000 TL
622 2025 Citroen JUMPY 1.5 BLUEHDI Kahramanmaraş 3.9.2026 16:30 500 TL
623 2014 Fiat/Tofaş LINEA ACTUAL PLUS 1.3 M.JET 95 E5 Denizli 3.9.2026 16:30 500 TL
624 2017 Volkswagen CRAFTER 19+1 Trabzon 3.9.2026 16:30 1.000 TL
625 2020 Motorsiklet RKS SPONTINI 110 (GST110T-14) İstanbul 3.9.2026 16:30 500 TL
626 2014 Dacia LOGAN MCV AMBIANCE 1.2 16V 75 İstanbul 3.9.2026 16:30 2.000 TL
627 2005 Renault KANGOO MULTIX 1.5 DCI AUTHENTIQUE İstanbul 3.9.2026 16:30 1.500 TL
628 2018 Motorsiklet KUBA EGE 50 Antalya 3.9.2026 16:30 500 TL
629 2004 Renault MEGANE II SEDAN DYNAMIQUE 1.5 DCI Gaziantep 3.9.2026 16:30 1.000 TL
630 2019 Hyundai KONA 1.6 CRDI ELITE SMART DCT Ankara 3.9.2026 16:30 1.000 TL
631 2024 Motorsiklet RKS SRK 125 - R Kayseri 3.9.2026 16:30 500 TL
632 1998 Hyundai ACCENT 1.3 LS SEDAN Gaziantep 3.9.2026 16:30 1.000 TL
633 2005 Dacia LOGAN AMBIANCE 1.4 PACK Konya 3.9.2026 16:30 500 TL
634 2010 Ford TOURNEO CONNECT KOMBI 1.8 TDCI Kastamonu 3.9.2026 16:30 41.000 TL
635 2024 Motorsiklet RKS RODOS 50 Kırşehir 3.9.2026 16:30 500 TL
636 1996 Hyundai H100 2.5 D 5+1 CAMLIVAN Kahramanmaraş 3.9.2026 16:30 500 TL
637 2007 Renault CLIO SYMBOL AUTHENTQUE 1.5 DCI İstanbul 3.9.2026 16:30 1.000 TL
638 2005 Renault TRAFIC 1.9 DCI İstanbul 3.9.2026 16:30 500 TL
639 2017 Honda CBR 250 R İstanbul 3.9.2026 16:30 1.000 TL
640 2022 Honda PCX 125 İstanbul 3.9.2026 16:30 1.000 TL
641 2025 Honda PCX 125 DLX Bursa 3.9.2026 16:30 1.000 TL
642 2004 Ford T. CONNECT KOMBI K210S 1.8 TDCİ Manisa 3.9.2026 16:30 1.000 TL
643 2005 Dacia LOGAN 1.4 Bursa 3.9.2026 16:30 1.000 TL
644 1990 Ford TAUNUS 1.6 İzmir 3.9.2026 16:30 1.000 TL
645 2020 Motorsiklet XMAX 400 İstanbul 3.9.2026 16:30 3.500 TL
646 2004 Honda ACCORD 2.0 Antalya 3.9.2026 16:30 79.500 TL
647 1996 Fiat/Tofaş SAHIN S Ankara 3.9.2026 16:30 1.000 TL
648 2012 Chevrolet AVEO SEDAN 1.3 DİZEL İstanbul 3.9.2026 16:30 2.500 TL
649 2001 Peugeot PARTNER 1.9D Kayseri 3.9.2026 16:30 1.000 TL
650 2010 Volvo S40 1.6 Muğla 4.9.2026 15:15 1.000 TL
651 2026 Peugeot 2008 ALLURE 1.2 HYBRID İstanbul 4.9.2026 15:15 777.000 TL
652 2012 Renault FLUENCE 1.5 DCI İstanbul 4.9.2026 15:15 1.000 TL
653 2018 Peugeot 2008 1.6 BLUEHDI Uşak 4.9.2026 15:15 333.000 TL
654 2022 Renault CLIO JOY 1.0 TCE İstanbul 4.9.2026 15:15 1.000 TL
655 2020 Fiat/Tofaş EGEA SEDAN 1.3 M.JET Samsun 4.9.2026 15:15 1.000 TL
656 2020 Skoda SCALA PREMIUM 1.6 TDI Kocaeli 4.9.2026 15:15 415.000 TL
657 2026 Cupra FORMENTOR 1.5 eTSI Samsun 4.9.2026 15:15 1.473.000 TL
658 2022 Mercedes EQE 350 AMG İstanbul 4.9.2026 15:15 745.000 TL
659 2023 Audi A3 SEDAN 35 TFSI 150 S LINE STRONIC Antalya 4.9.2026 15:30 1.000 TL
660 2022 Bmw 740d XDRIVE 3.0 (300) M EXCELLENCE İstanbul 4.9.2026 15:30 1.000 TL
661 1993 Fiat/Tofaş DOĞAN SL Şehir Seç 4.9.2026 15:30 1.000 TL
662 2010 Renault KANGOO MULTIX 1.5 DCI Şehir Seç 4.9.2026 15:30 1.000 TL
663 2001 Fiat/Tofaş PALIO 1.2 Sivas 4.9.2026 15:30 1.000 TL
664 2009 Renault SYMBOL AUTHENTIQUE 1.5 DCI Denizli 4.9.2026 15:30 1.000 TL
665 2022 Volkswagen POLO 1.0 Şehir Seç 4.9.2026 15:30 1.000 TL
666 2012 Ford FOCUS 1.6 TDCI TREND İstanbul 4.9.2026 15:30 1.000 TL
667 2026 Togg T10X V2 RWD UZUN MENZIL 160KW Antalya 4.9.2026 15:30 1.000 TL
668 2017 Dacia DUSTER 4x2 1.5 DCI 110 Malatya 4.9.2026 15:30 1.000 TL
669 2015 Citroen C4 CACTUS 1.6 E-HDI 92 İzmir 4.9.2026 15:30 1.000 TL
670 2007 Renault KANGOO MULTİX 1.5 DCI Mersin 4.9.2026 15:30 1.000 TL
671 2024 Ford TRANSİT 350ED KNET 2.0 165 Samsun 4.9.2026 15:30 1.000 TL
672 2025 Audi A3 35 TFSI İstanbul 4.9.2026 15:30 1.000 TL
673 2021 Honda CIVIC SEDAN 1.5 İ VTEC İstanbul 4.9.2026 15:30 1.000 TL
674 2025 Bmw X1 XDRIVE25E 1.5 Çanakkale 4.9.2026 15:30 1.000 TL
675 2020 Volkswagen PASSAT 2.0 TDI Ankara 4.9.2026 15:30 1.000 TL
676 2008 Honda JAZZ 1.4 Rize 4.9.2026 15:30 1.000 TL
677 1997 Toyota COROLLA 1.6 Çorum 4.9.2026 15:30 1.000 TL
678 2021 Motorsiklet TK03 Mardin 4.9.2026 15:30 1.000 TL
679 2004 Scania CEKICI R 164 4x2 NA Antalya 4.9.2026 15:30 1.000 TL
680 2017 Volkswagen POLO 1.2 TSI 90 Denizli 4.9.2026 15:30 1.000 TL
681 2025 Dorse/Römork YARI RÖMORK İzmir 4.9.2026 15:30 1.000 TL
682 2014 Ford TRANSIT COURIER VAN 1.5 TDCI Sakarya 4.9.2026 15:30 1.000 TL
683 2013 Renault SYMBOL 1,5 DCİ TOUCH Şanlıurfa 4.9.2026 15:30 1.000 TL
684 2021 Toyota COROLLA 1.5 Ankara 4.9.2026 15:30 1.000 TL
685 2014 Volkswagen CADDY 1.6 TDİ Adıyaman 4.9.2026 15:30 1.000 TL
686 2025 Honda PCX 125 İstanbul 4.9.2026 15:30 1.000 TL
687 2025 Fiat/Tofaş EGEA SEDAN 1.6 M.JET İstanbul 4.9.2026 15:30 1.000 TL
688 2023 Fiat/Tofaş EGEA CROSS 1.6 M.JET Zonguldak 4.9.2026 15:30 1.000 TL
689 2023 Fiat/Tofaş EGEA CROSS 1.6 M.JET Ankara 4.9.2026 15:30 1.000 TL
690 2026 Renault CLİO 1.0 TCE İstanbul 4.9.2026 15:30 1.000 TL
691 2013 Toyota AURIS 1.6 Adana 4.9.2026 15:30 1.000 TL
692 2015 Skoda RAPID 1.6 TDI Eskişehir 4.9.2026 15:30 1.000 TL
693 1998 Volkswagen POLO CLASSIC 1.6 Kütahya 4.9.2026 15:30 1.000 TL
694 2025 Motorsiklet SHARK 125 Şehir Seç 4.9.2026 15:30 1.000 TL
695 2000 Toyota COROLLA 1.6 TERRA Ankara 4.9.2026 15:30 1.000 TL
696 2004 Fiat/Tofaş ALBEA 1.3 MULTIJET Bartın 4.9.2026 15:30 1.000 TL
697 2022 Motorsiklet RC 390 Şehir Seç 4.9.2026 15:30 1.000 TL
698 2023 Motorsiklet 250 CL-X İstanbul 4.9.2026 15:30 1.000 TL
699 2017 Audi A3 SPORTBACK 1.6 TDI Diyarbakır 4.9.2026 15:30 1.000 TL
700 2022 Volkswagen PASSAT 1.5 TSI Van 4.9.2026 15:30 1.000 TL
701 2012 Traktör MF 6499 Şanlıurfa 4.9.2026 15:30 1.000 TL
702 2014 Toyota COROLLA 1.4 D-4D ADVANCE Samsun 4.9.2026 15:30 1.000 TL
703 2023 Citroen BERLINGO 1,5 BLUEHDI Samsun 4.9.2026 15:30 1.000 TL
704 2026 Kgmobılıty TORRES EVX Antalya 4.9.2026 15:30 1.000 TL
705 2018 Motorsiklet V15 İstanbul 4.9.2026 15:30 1.000 TL
706 2012 Volkswagen CADDY 1.6 TDI Sakarya 4.9.2026 15:30 1.000 TL
707 2020 Renault MEGANE SEDAN 1.3 TCE 140 Ankara 4.9.2026 15:30 1.000 TL
708 2011 Fiat/Tofaş PANDA 1.2 ACTIVE (69) İzmir 4.9.2026 15:30 1.000 TL
709 2024 Motorsiklet 250 SR Eskişehir 4.9.2026 15:30 1.000 TL
710 2024 Motorsiklet PULSAR RS 200 Antalya 4.9.2026 15:30 1.000 TL
711 2011 Motorsiklet KB150-9 Mersin 4.9.2026 15:30 1.000 TL
712 2004 Opel CORSA 1.3 CDTi Tekirdağ 4.9.2026 15:30 1.000 TL
713 2025 Motorsiklet GRACE 50 İstanbul 4.9.2026 15:30 1.000 TL
714 2020 Renault CLIO 1.0 TCE Kocaeli 4.9.2026 15:30 1.000 TL
715 2023 Opel CORSA 1.2 İzmir 4.9.2026 15:30 1.000 TL
716 2013 Skoda SUPERB 1.6 TDI Gaziantep 4.9.2026 15:30 1.000 TL
717 2023 Ford FOCUS 1.5 ECOBLUE İstanbul 4.9.2026 15:30 1.000 TL
718 2008 Toyota COROLLA SEDAN 1.6 ELEGANT Manisa 4.9.2026 15:30 1.000 TL
719 2024 Fiat/Tofaş EGEA SEDAN EASY 1.4 FIRE Kütahya 4.9.2026 15:30 1.000 TL
720 2022 Motorsiklet MT 125 Aydın 4.9.2026 15:30 1.000 TL
721 2026 Peugeot 2008 1.2 HYBRID Kayseri 4.9.2026 15:30 1.000 TL
722 1998 Toyota COROLLA 1.3 XL SW İzmir 4.9.2026 15:30 1.000 TL
723 2015 Fiat/Tofaş DOBLO CARGO MAXI 1.6 M.JET İstanbul 4.9.2026 15:30 1.000 TL
724 2015 Mercedes VITO TOURER Antalya 4.9.2026 15:30 1.000 TL
725 2005 Opel ASTRA HB 1.3 CDTi ESSENTIA İzmir 4.9.2026 15:30 1.000 TL
726 2021 Honda DIO Kocaeli 4.9.2026 15:30 1.000 TL
727 2015 Volkswagen PASSAT 1.6 TDI BMT Kayseri 4.9.2026 15:30 1.000 TL
728 2003 Alfa Romeo 147 1.6 DISTINCTIVE Bursa 4.9.2026 15:30 1.000 TL
729 2015 Ford TRANSIT 350 L KAMYONET Batman 4.9.2026 15:30 1.000 TL
730 2025 Motorsiklet 125 DRIFT L Elazığ 4.9.2026 15:30 1.000 TL
731 2024 Fiat/Tofaş FIORINO COMBI POP 1.4 Kahramanmaraş 4.9.2026 15:30 1.000 TL
732 2024 Motorsiklet 250 NK Kayseri 4.9.2026 15:30 1.000 TL
733 2016 Ford TOURNEO COURIER 1.6 TDCI Hatay 4.9.2026 15:30 1.000 TL
734 2024 Hyundai H100 KAMYONET 2.5 CRDI Aydın 4.9.2026 15:30 1.000 TL
735 2024 Togg T10X Erzurum 4.9.2026 15:30 1.000 TL
736 2006 Fiat/Tofaş DOBLO COMBİ 1.9 PREMİO Nevşehir 4.9.2026 15:30 1.000 TL
737 2006 Renault MEGANE SEDAN AUTHENTIQUE 1.4 Erzurum 4.9.2026 15:30 1.000 TL
738 2014 Mercedes KAMYON AXOR 4140 B E5 Hatay 4.9.2026 15:30 1.000 TL
739 2000 Fiat/Tofaş DOGAN 1.6 İ.E. Malatya 4.9.2026 15:30 1.000 TL
740 2020 Motorsiklet KRAL KR-50 Aksaray 4.9.2026 15:30 1.000 TL
741 2022 Ford KAMYON 4142M 8x4 İzmir 4.9.2026 15:30 1.000 TL
742 1993 Fiat/Tofaş ŞAHİN 1.6 Edirne 4.9.2026 15:30 1.000 TL
743 2017 Renault SYMBOL 1.5 DCI TOUCH Gaziantep 4.9.2026 15:30 1.000 TL
744 2005 Hyundai GETZ 1.3 GLS Eskişehir 4.9.2026 15:30 1.000 TL
745 2012 Ford FIESTA TITANIUM 1.4 TDCI (70) İstanbul 4.9.2026 15:30 1.000 TL
746 2017 Renault CAPTUR 1,2 Amasya 4.9.2026 15:30 1.000 TL
747 2020 Mitsubishi L200 Erzincan 4.9.2026 15:30 1.000 TL
748 2014 Ford FOCUS 1,6 TDCİ Aksaray 4.9.2026 15:30 1.000 TL
749 2021 Mitsubishi L200 Diyarbakır 4.9.2026 15:30 1.000 TL
750 2008 Volvo S40 1.6D Muş 4.9.2026 15:30 1.000 TL
751 2001 Fiat/Tofaş KARTAL 1,6 Aydın 4.9.2026 15:30 1.000 TL
752 1998 Renault CLIO 1.4 RT Mersin 4.9.2026 15:30 1.000 TL
753 2024 Motorsiklet JUPITER 125 Denizli 4.9.2026 15:30 1.000 TL
754 1990 Renault R12 TOROS Şehir Seç 4.9.2026 15:30 1.000 TL
755 2015 Motorsiklet JOYMAX 250i İstanbul 4.9.2026 15:30 1.000 TL
756 2024 Fiat/Tofaş EGEA SEDAN 1.6 M.JET Kayseri 4.9.2026 15:30 1.000 TL
757 2023 Skywell ET5 Şehir Seç 4.9.2026 15:30 1.000 TL
758 2023 Motorsiklet AROME 125 İstanbul 4.9.2026 15:30 1.000 TL
759 2016 Motorsiklet PULSAR RS 200 Ankara 4.9.2026 15:30 1.000 TL
760 2000 Renault 12 TOROS TSW Şanlıurfa 4.9.2026 15:30 1.000 TL
761 2020 Seat LEON 1.5 ECOTSI Kayseri 4.9.2026 15:30 1.000 TL
762 1993 Opel VECTRA 2.0 Kayseri 4.9.2026 15:30 1.000 TL
763 2013 Hyundai i20 1.4 CRDI İstanbul 4.9.2026 15:30 1.000 TL
764 2017 Audi Q3 2.0 TDI Çorum 4.9.2026 15:30 1.000 TL
765 2011 Dacia LOGAN 1.5 DCI MCV BLACKLINE Edirne 4.9.2026 15:30 1.000 TL
766 2014 Mercedes CLA 200 1.6 Eskişehir 4.9.2026 15:30 1.000 TL
767 2020 Opel CORSA 1.2 Antalya 4.9.2026 15:30 1.000 TL
768 1999 Honda ACCORD 2.0 İzmir 4.9.2026 15:30 1.000 TL
769 2018 Honda CIVIC SEDAN 1.6i VTEC Bursa 4.9.2026 15:30 1.000 TL
770 2012 Ford FIESTA TREND 1.4i İzmir 4.9.2026 15:30 1.000 TL
771 2024 Renault CLIO 1,0 TCE İstanbul 4.9.2026 15:30 1.000 TL
772 2025 Opel CORSA 1.2 T İstanbul 4.9.2026 15:30 1.000 TL
773 1987 Fiat/Tofaş DOĞAN 1.6 Ankara 4.9.2026 15:30 1.000 TL
774 2024 Motorsiklet JUPITER 110 Balıkesir 4.9.2026 15:30 1.000 TL
775 2022 Dorse/Römork REİSTREYLER 3AFCRT YARI RÖMORK İzmir 4.9.2026 15:30 1.000 TL
776 2007 Renault CLIO SYMBOL 1.5 DCI Denizli 4.9.2026 15:30 1.000 TL
777 2022 Mercedes EQE 350+ Ankara 4.9.2026 15:30 1.000 TL
778 2023 Honda DIO 110 Ankara 4.9.2026 15:30 1.000 TL
779 2024 Skoda KODIAQ 1.5 TSI MHEV Kayseri 4.9.2026 15:30 1.000 TL
780 2004 Ford FOCUS 1.6i HB Ankara 4.9.2026 15:30 1.000 TL
781 2025 Motorsiklet VRS 125 İstanbul 4.9.2026 15:30 1.000 TL
782 2024 Honda PCX 125 İzmir 4.9.2026 15:30 1.000 TL
783 2013 Opel ASTRA 1,3 CDTİ İzmir 4.9.2026 15:30 1.000 TL
784 1994 Fiat/Tofaş TEMPRA 2.0 İE Kocaeli 4.9.2026 15:30 1.000 TL
785 2018 Motorsiklet X-MAX 400 Malatya 4.9.2026 15:30 1.000 TL
786 2023 Isuzu NPR 3D Yozgat 4.9.2026 15:30 1.000 TL
787 2006 Ford FIESTA 1.4 COMFORT Eskişehir 4.9.2026 15:30 1.000 TL
788 2012 Dorse/Römork FRİGOFİRK YARI RÖMORK Hatay 4.9.2026 15:30 1.000 TL
789 2022 Motorsiklet BRILLIANT 125 Muğla 4.9.2026 15:30 1.000 TL
790 2012 Nissan QASHQAI 1.5 DCI PLATINUM Denizli 4.9.2026 15:30 1.000 TL
791 2005 Volkswagen PASSAT 1.9 TDI Ankara 4.9.2026 15:30 1.000 TL
792 2015 Mercedes CEKICI AXOR 1840 LS E5 Adana 4.9.2026 15:30 1.000 TL
793 2024 Mercedes CEKICI ACTROS 1848 LS 4x2 FL Hatay 4.9.2026 15:30 1.000 TL
794 2015 Renault CLIO HB 1.5 DCI İzmir 4.9.2026 15:30 1.000 TL
795 2005 Hyundai H100 PANELVAN 2.6 Çanakkale 4.9.2026 15:30 1.000 TL
796 2022 Traktör TC5.80 BİÇERDÖVER Şehir Seç 4.9.2026 15:30 1.000 TL
797 2025 Motorsiklet SOFT 50 Bolu 4.9.2026 15:30 1.000 TL
798 1994 Toyota COROLLA 1.3 XL Şanlıurfa 4.9.2026 15:30 1.000 TL
799 2023 Citroen C4 X 1.2 PURETECH İstanbul 4.9.2026 15:30 1.000 TL
800 1998 Hyundai ACCENT 1.3 Konya 4.9.2026 15:30 1.000 TL
801 1993 Fiat/Tofaş DOGAN SLX İzmir 4.9.2026 15:30 1.000 TL
802 1996 Fiat/Tofaş KARTAL S Bursa 4.9.2026 15:30 1.000 TL
803 2005 Opel OPEL ASTRA HB 1.3 CDTİ ENJOY Samsun 4.9.2026 15:30 1.000 TL
804 2024 Motorsiklet NEWLIGHT 125 PRO Mersin 4.9.2026 15:30 1.000 TL
805 2018 Bmw X5 XDRIVE25d Şanlıurfa 4.9.2026 15:30 1.000 TL
806 1997 Renault BROADWAY 1.4 Konya 4.9.2026 15:30 1.000 TL
807 2004 Citroen C3 1.4 HDI SX İzmir 4.9.2026 15:30 1.000 TL
808 2024 Peugeot 2008 1.2 Ankara 4.9.2026 15:30 1.000 TL
809 1996 Daf FT 95 430 Burdur 4.9.2026 15:30 1.000 TL
810 2024 Chery TIGGO 8 PRO MAX 1.6 İstanbul 4.9.2026 15:30 1.000 TL
811 1993 Honda CIVIC 1.5 Şehir Seç 4.9.2026 15:30 1.000 TL
812 2021 Honda PCX 125 Mersin 4.9.2026 15:30 1.000 TL
813 2003 Nissan PRIMERA 1.6 TEKNA SEDAN Şanlıurfa 4.9.2026 15:30 1.000 TL
814 2012 Nissan JUKE 1.6 TEKNA Diyarbakır 4.9.2026 15:30 1.000 TL
815 2024 Motorsiklet 250 SR İstanbul 4.9.2026 15:30 1.000 TL
816 2025 Opel CORSA 1.2 İstanbul 4.9.2026 15:30 1.000 TL
817 2005 Renault MEGANE II HB 1.6 Bingöl 4.9.2026 15:30 1.000 TL
818 2023 Motorsiklet JUPITER 125 Şehir Seç 4.9.2026 15:30 1.000 TL
819 2017 Peugeot BOXER VAN Ankara 4.9.2026 15:30 1.000 TL
820 2013 Peugeot 208 1,4 HDI Antalya 4.9.2026 15:30 1.000 TL
821 2014 Mercedes C 180 1.6 Denizli 4.9.2026 15:30 1.000 TL
822 2017 Skoda SUPERB 1.6 TDI Ankara 4.9.2026 15:30 1.000 TL
823 2006 Fiat/Tofaş DOBLO CARGO 1.4 ACTUAL Sakarya 4.9.2026 15:30 1.000 TL
824 2016 Renault FLUENCE 1.5 DCI 110 EDC Batman 4.9.2026 15:30 1.000 TL
825 2025 Motorsiklet BRILLIANT 50 İstanbul 4.9.2026 15:30 1.000 TL
826 2007 Renault SYMBOL AUTHENTIQUE 1.5 DCI Antalya 4.9.2026 15:30 1.000 TL
827 2017 Hyundai ELANTRA 1.6 D-CVVT STYLE Ankara 4.9.2026 15:30 1.000 TL
828 2023 Mg MG4 ELECTRIC Antalya 4.9.2026 15:30 1.000 TL
829 2018 Renault CLIO HB 1.2 Tekirdağ 4.9.2026 15:30 1.000 TL
830 2022 Fiat/Tofaş EGEA CROSS 1.4 FIRE 95 Denizli 4.9.2026 15:30 1.000 TL
831 2024 Motorsiklet QUANTUM 50 Adıyaman 4.9.2026 15:30 1.000 TL
832 2017 Citroen C-ELLYSE 1.6 HDI 92 Bursa 4.9.2026 15:30 1.000 TL
833 1993 Renault R9 BROADWAY 1.4 Kütahya 4.9.2026 15:30 1.000 TL
834 2023 Motorsiklet NMAX 155 İzmir 4.9.2026 15:30 1.000 TL
835 2015 Peugeot 508 1.6 BLUEHD İstanbul 4.9.2026 15:30 1.000 TL
836 2011 Fiat/Tofaş PUNTO 1.3 MULTIJET Bursa 4.9.2026 15:30 1.000 TL
837 2023 Ford TOURNEO COURIER 1.0 E.BOOST 100 Şehir Seç 4.9.2026 15:30 1.000 TL
838 2010 Hyundai ACCENT ERA 1.4 OV Ankara 4.9.2026 15:30 1.000 TL
839 2020 Skoda KAROQ 1.6 TDI 115 SCR DSG Bitlis 4.9.2026 15:30 1.000 TL
840 2025 Motorsiklet KUBA BRILLIANT 125 İstanbul 4.9.2026 15:30 1.000 TL
841 2006 Jaguar X TYPE 2.0 D EXECUTIVE İstanbul 4.9.2026 15:30 1.000 TL
842 2006 Ford FUSION 1.6 TDCi LUX Erzurum 4.9.2026 15:30 1.000 TL
843 2005 Toyota YARIS 1.0 İstanbul 4.9.2026 15:30 1.000 TL
844 2015 Motorsiklet XMAX 250 Balıkesir 4.9.2026 15:30 1.000 TL
845 2024 Honda HONDA ADV350 İstanbul 4.9.2026 15:30 1.000 TL
846 1996 Suzuki VITARA 1.6 JLX Şehir Seç 4.9.2026 15:30 1.000 TL
847 2018 Peugeot 301 1.6 BLUEHDI Şehir Seç 4.9.2026 15:30 1.000 TL
848 2007 Honda CIVIC SEDAN 1.6 Sinop 4.9.2026 15:30 1.000 TL
849 2008 Fiat/Tofaş DOBLO CARGO 1.4 ACTUAL Ankara 4.9.2026 15:30 1.000 TL
850 2021 Renault MEGANE 1,3 TCE Ankara 4.9.2026 15:30 1.000 TL
851 1993 Toyota COROLLA 1,3 Şehir Seç 4.9.2026 15:30 1.000 TL
852 1985 Fiat/Tofaş 131 Elazığ 4.9.2026 15:30 1.000 TL
853 2024 Ford TRANSİT 16+1 Antalya 4.9.2026 15:30 1.000 TL
854 2019 Motorsiklet 250 NK Kocaeli 4.9.2026 15:30 1.000 TL
855 2001 Volkswagen BORA 1.6 İzmir 4.9.2026 15:30 1.000 TL
856 2006 Peugeot 307 COMFORT 1.6 HDI Samsun 4.9.2026 15:30 1.000 TL
857 2025 Hyundai IONIQ 5 Bursa 4.9.2026 15:30 1.000 TL
858 2024 Honda PCX 125 Şehir Seç 4.9.2026 15:30 1.000 TL
859 2022 Ford TOURNEO COURIER KOMBI 1.5TDCI Ankara 4.9.2026 15:30 1.000 TL
860 2020 Jeep RENEGADE 1.6 MJET Ankara 4.9.2026 15:30 1.000 TL
861 2018 Dacia LOGAN MCV 1,5 DCI İzmir 4.9.2026 15:30 1.000 TL
862 2018 Ford KAMYON 4142 Ankara 4.9.2026 15:30 1.000 TL
863 2025 Audi A3 SPORTBACK 35 TFSI İstanbul 4.9.2026 15:30 1.000 TL
864 2010 Volkswagen GOLF VI 1.4 TSI (122) HIGHLINE TIPTR.DSG Tekirdağ 4.9.2026 15:30 1.000 TL
865 2026 Motorsiklet MAX PRO150 T Artvin 4.9.2026 15:30 1.000 TL
866 2012 Toyota YARIS 1.33 FUN Kastamonu 4.9.2026 15:30 1.000 TL
867 2023 Motorsiklet BRİLLİANT 125 İstanbul 4.9.2026 15:30 1.000 TL
868 2019 Ford TOURNEO COURIER KOMBI 1.5 TDCI 75 İzmir 4.9.2026 15:30 1.000 TL
869 2004 Peugeot PARTNER COMBI VAN 190 C 1.9 D Elazığ 4.9.2026 15:30 1.000 TL
870 2008 Hyundai GETZ 1.5 CRDi VGT (120) Edirne 4.9.2026 15:30 1.000 TL
871 2010 Mazda 3 HB 1.6 (105) Ankara 4.9.2026 15:30 1.000 TL
872 2019 Motorsiklet JET14 125 İstanbul 4.9.2026 15:30 1.000 TL
873 2020 Fiat/Tofaş EGEA SEDAN 1.6 M.JET 120 DCT Antalya 4.9.2026 15:30 1.000 TL
874 2005 Fiat/Tofaş MAREA 1.6 LIBERTY Bursa 4.9.2026 15:30 1.000 TL
875 2012 Ford FOCUS 1.0 ECOBOOST 125 Erzurum 4.9.2026 15:30 1.000 TL
876 2024 Honda PCX 125 Ankara 4.9.2026 15:30 1.000 TL
877 2023 Motorsiklet KUBA CG50 PRO Hatay 4.9.2026 15:30 1.000 TL
878 2024 Renault CAPTUR 1.3 HYBRID Batman 4.9.2026 15:30 1.000 TL
879 2006 Mazda 3 1.6 HB Elazığ 4.9.2026 15:30 1.000 TL
880 2009 Fiat/Tofaş PUNTO 1.4 Şehir Seç 4.9.2026 15:30 1.000 TL
881 2022 Renault MEGANE 1,3 TCE Şanlıurfa 4.9.2026 15:30 1.000 TL
882 2020 Toyota COROLLA 1.6 Ankara 4.9.2026 15:30 1.000 TL
883 2022 Ford TOURNEO COURIER KOMBI 1.5 TDCI 100 Şehir Seç 4.9.2026 15:30 1.000 TL
884 1999 Renault 19 EUROPA 1.6i RNE Kastamonu 4.9.2026 15:30 1.000 TL
885 2022 Renault TALIANT 1.0 TURBO Şanlıurfa 4.9.2026 15:30 1.000 TL
886 1992 Fiat/Tofaş ŞAHİN 1.6 Niğde 4.9.2026 15:30 1.000 TL
887 2013 Hyundai i30 1.6 CRDI Ankara 4.9.2026 15:30 1.000 TL
888 2025 Ford DUCATO VAN 2.2 D Kayseri 4.9.2026 15:30 1.000 TL
889 2015 Fiat/Tofaş FIORINO COMBI 1.3 M.JET Şehir Seç 4.9.2026 15:30 1.000 TL
890 2023 Kia STONIC 1.4 Ankara 4.9.2026 15:30 1.000 TL
891 2025 Motorsiklet ICON 50 ST İstanbul 4.9.2026 15:30 1.000 TL
892 2023 Motorsiklet AROME 125 Mersin 4.9.2026 15:30 1.000 TL
893 2008 Mercedes VITO CDI Şehir Seç 4.9.2026 15:30 1.000 TL
894 2024 Motorsiklet MT 25 Antalya 4.9.2026 15:30 1.000 TL
895 2018 Toyota C-HR 1.8 HYBRID İzmir 4.9.2026 15:30 1.000 TL
896 2008 Iveco DAILY KAMYONET 35 C 15 CC 4100 İstanbul 4.9.2026 15:30 1.000 TL
897 2008 Fiat/Tofaş G.PUNTO 1.4 FIRE ACTIVE Aydın 4.9.2026 15:30 1.000 TL
898 2008 Ford T. CONNECT KOMBI K210S 1.8 TDCi (75) Sinop 4.9.2026 15:30 1.000 TL
899 1994 Renault R9 1.6 FAİRWAY Şanlıurfa 4.9.2026 15:30 1.000 TL
900 2016 Dacia SANDERO STEPWAY 1.5 DCI 90 Mersin 4.9.2026 15:30 1.000 TL
901 2016 Motorsiklet ATTACK 100 Kayseri 4.9.2026 15:30 1.000 TL
902 1998 Hyundai ACCENT 1.5 Isparta 4.9.2026 15:30 1.000 TL
903 2012 Mercedes VİTO 113 CDİ 9+1 Trabzon 4.9.2026 15:30 1.000 TL
904 2016 Hyundai TUCSON 1.6 T-GDI Ankara 4.9.2026 15:30 1.000 TL
905 1986 Renault 9 BROADWAY Amasya 4.9.2026 15:30 1.000 TL
906 2024 Motorsiklet JET X 125 Trabzon 4.9.2026 15:30 1.000 TL
907 2023 Motorsiklet 250 SR Şehir Seç 4.9.2026 15:30 1.000 TL
908 2010 Renault SYMBOL AUTHENTIQUE 1.5 DCI İstanbul 4.9.2026 15:30 1.000 TL
909 2000 Hyundai ACCENT 1.3 LX Bartın 4.9.2026 15:30 1.000 TL
910 2010 Volkswagen PASSAT 1.4 TSI Van 4.9.2026 15:30 1.000 TL
911 2023 Motorsiklet JOYRIDE Şanlıurfa 4.9.2026 15:30 1.000 TL
912 2021 Peugeot 3008 1.6 İstanbul 4.9.2026 15:30 1.000 TL
913 2006 Peugeot PARTNER COMBİ 1.9D Şehir Seç 4.9.2026 15:30 1.000 TL
914 2007 Hyundai SONATA 2.0 CRDi Şehir Seç 4.9.2026 15:30 1.000 TL
915 2013 Hyundai ACCENT BLUE Şehir Seç 4.9.2026 15:30 1.000 TL
916 2020 Ford TOURNEO COURIER 1.5 TDCİ İstanbul 4.9.2026 15:30 1.000 TL
917 2015 Renault KADJAR TOUCH 1.2 Erzincan 4.9.2026 15:30 1.000 TL
918 1991 Fiat/Tofaş ŞAHİN 1.6 Artvin 4.9.2026 15:30 1.000 TL
919 2013 Volkswagen AMAROK 2.0 TDI Giresun 4.9.2026 15:30 1.000 TL
920 2002 Peugeot 307 XS 1.6 Şehir Seç 4.9.2026 15:30 1.000 TL
921 2024 Honda DIO 110 Şehir Seç 4.9.2026 15:30 1.000 TL
922 2008 Hyundai i30 1.6 CRDi Bursa 4.9.2026 15:30 1.000 TL
923 1993 Fiat/Tofaş TEMPRA SXA Bursa 4.9.2026 15:30 1.000 TL
924 2016 Opel CORSA 1.4 90 Aydın 4.9.2026 15:30 1.000 TL
925 2020 Volkswagen PASSAT 1.6 TDI BMT 120 DSG Gaziantep 4.9.2026 15:30 1.000 TL
926 2026 Motorsiklet SMART 50 Balıkesir 4.9.2026 15:30 1.000 TL
927 2023 Motorsiklet 250 CL-X Kahramanmaraş 4.9.2026 15:30 1.000 TL
928 1995 Mercedes E 200 Adana 4.9.2026 15:30 1.000 TL
929 2023 Renault MEGANE SEDAN 1.3 TCE EDC 140 Ankara 4.9.2026 15:30 1.000 TL
930 2017 Motorsiklet MT 25 Kayseri 4.9.2026 15:30 1.000 TL
931 2015 Hyundai I30 1.6 CRDİ Aydın 4.9.2026 15:30 1.000 TL
932 2014 Ford TOURNEO COURIER KOMBI 1.6 TDCI 95 Çanakkale 4.9.2026 15:30 1.000 TL
933 1993 Opel VECTRA Erzincan 4.9.2026 15:30 1.000 TL
934 2016 Hyundai ACCENT BLUE 1.6 CRDI Kayseri 4.9.2026 15:30 1.000 TL
935 2022 Renault MEGANE SEDAN 1.5 BLUEDCI İstanbul 4.9.2026 15:30 1.000 TL
936 2021 Renault MEGANE SEDAN 1.5 BLUEDCI Diyarbakır 4.9.2026 15:30 1.000 TL
937 2017 Honda CIVIC SEDAN 1.6İ VTEC Kocaeli 4.9.2026 15:30 1.000 TL
938 2012 Ford FOCUS SEDAN 1.6 TDCI Antalya 4.9.2026 15:30 1.000 TL
939 2012 Chevrolet CRUZE 1.6 Malatya 4.9.2026 15:30 1.000 TL
940 2014 Renault FLUENCE 1.5 DCI 90 Şehir Seç 4.9.2026 15:30 1.000 TL
941 2016 Nissan QASHQAI 1.2 TURBO SKYPACK X-TRONIC İzmir 4.9.2026 15:30 1.000 TL
942 2023 Motorsiklet R25 ABS Mersin 4.9.2026 15:30 1.000 TL
943 2025 Motorsiklet EGE 50 Mersin 4.9.2026 15:30 1.000 TL
944 2010 Motorsiklet KLX 250 İstanbul 4.9.2026 15:30 1.000 TL
945 2015 Audi A6 2.0 TDI (190) S TRONIC PI Ankara 4.9.2026 15:30 1.000 TL
946 2020 Honda PCX 125 Gaziantep 4.9.2026 15:30 1.000 TL
947 2011 Volkswagen CADDY KOMBI 1.6 TDI (102) Antalya 4.9.2026 15:30 1.000 TL
948 2013 Dacia DOKKER COMBI AMBIANCE 1.5 DCI 90 Kayseri 4.9.2026 15:30 1.000 TL
949 2023 Motorsiklet FREEDOM 50 Samsun 4.9.2026 15:30 1.000 TL
950 2025 Motorsiklet YUKI 110 Konya 4.9.2026 15:30 1.000 TL
951 2016 Bmw 520i SEDAN 1.6 (170) Bursa 4.9.2026 15:30 1.000 TL
952 2008 Bmw 118i Antalya 4.9.2026 15:30 1.000 TL
953 2023 Dacia JOGGER 1.0 ECO-G 100 7 KOLTUKLU Erzurum 4.9.2026 15:30 1.000 TL
954 2014 Mercedes E 250 COUPE Antalya 4.9.2026 15:30 1.000 TL
955 2012 Motorsiklet YZF R125 Antalya 4.9.2026 15:30 1.000 TL
956 0 Emtea İstanbul 4.9.2026 15:30 TL
957 1996 Fiat/Tofaş SAHIN 1.6 Yozgat 4.9.2026 15:30 1.000 TL
958 2016 Motorsiklet YAMAHA GPD 125-A Denizli 4.9.2026 15:30 1.000 TL
959 2005 Hyundai ACCENT 1.6 Adıyaman 4.9.2026 15:30 1.000 TL
960 2014 Ford TRANSIT VAN Kayseri 4.9.2026 15:30 1.000 TL
961 2016 Opel CORSA 1.4 Kayseri 4.9.2026 15:30 1.000 TL
962 2017 Volkswagen POLO 1.4 TDI Antalya 4.9.2026 15:30 1.000 TL
963 2023 Fiat/Tofaş EGEA SEDAN 1.4 FIRE Van 4.9.2026 15:30 1.000 TL
964 1993 Fiat/Tofaş TEMPRA SX Ankara 4.9.2026 15:30 1.000 TL
965 1988 Renault 12 TSW TOROS Balıkesir 4.9.2026 15:30 1.000 TL
966 2016 Scania KAMYON G320 İzmir 4.9.2026 16:30 1.000 TL
967 2021 Skoda OCTAVIA 1.5 e-Tec İstanbul 4.9.2026 16:30 1.500 TL
968 2013 Renault SYMBOL 1,5 DCİ Gaziantep 4.9.2026 16:30 5.000 TL
969 2013 Volkswagen TIGUAN 1.4 TSI İzmir 4.9.2026 16:30 500 TL
970 2024 Motorsiklet SMART 50 Samsun 4.9.2026 16:30 1.000 TL
971 2005 Peugeot PARTNER VAN 1,9 D COMFORT Bolu 4.9.2026 16:30 1.000 TL
972 2022 Toyota HILUX 2.4 D-4D Erzurum 4.9.2026 16:30 1.000 TL
973 2012 Dorse/Römork SILOBAS YARI RÖMORK Aydın 4.9.2026 16:30 1.000 TL
974 2006 Ford FOCUS 1.6 TDCi Kahramanmaraş 4.9.2026 16:30 1.000 TL
975 2023 Hyundai i20 1.0 T-GDI İstanbul 4.9.2026 16:30 1.000 TL
976 2022 Motorsiklet DOMINAR D 250 Çorum 4.9.2026 16:30 1.000 TL
977 2005 Mercedes E 200 K Kütahya 4.9.2026 16:30 1.000 TL
978 2025 Honda NSS 250A FORZA Muğla 4.9.2026 16:30 1.000 TL
979 2007 Chevrolet CAPTIVA 2.0 D Rize 4.9.2026 16:30 1.000 TL
980 2016 Ford TOURNEO CONNECT 1.6 TDCI Konya 4.9.2026 16:30 1.000 TL
981 2013 Skoda OCTAVIA 1.6 TDI Malatya 4.9.2026 16:30 1.000 TL
982 2000 Bmc KAMYON FATIH 220 26 Afyonkarahisar 4.9.2026 16:30 35.500 TL
983 2016 Fiat/Tofaş DOBLO COMBI 1.3 M.JET İstanbul 4.9.2026 16:30 75.000 TL
984 2017 Fiat/Tofaş EGEA 1,6 MULTİJET Bursa 4.9.2026 16:30 1.000 TL
985 2025 Togg T10X V2 RWD UZUN MENZIL 160KW İstanbul 4.9.2026 16:30 801.000 TL
986 2011 Citroen C5 3 SX 1.6 HDI Sakarya 4.9.2026 16:30 1.000 TL
987 2000 Opel ASTRA GL 1.6 HATCBACK Sakarya 4.9.2026 16:30 65.500 TL
988 1983 Fiat/Tofaş 131 DOGAN L Balıkesir 4.9.2026 16:30 1.000 TL
989 1998 Ford ESCORT 1.6i CL SEDAN Eskişehir 4.9.2026 16:30 1.000 TL
990 2012 Volkswagen POLO 1.2 (70) TRENDLINE Van 4.9.2026 16:30 1.000 TL
991 2010 Geely CK ECHO 1.3 BASIC Erzurum 4.9.2026 16:30 1.000 TL
992 2025 Motorsiklet MONDIAL SCOOTER FURY 110i Ankara 4.9.2026 16:30 1.000 TL
993 2005 Motorsiklet PIAGGIO SKIPPER 150 İstanbul 4.9.2026 16:30 1.000 TL
994 2023 Audi E-TRON S LINE 55 QUATTRO Ankara 4.9.2026 16:30 1.000.000 TL
995 2025 Mercedes CLA 45 S 4MATIC+ FINAL EDT İstanbul 4.9.2026 16:30 3.500.000 TL
996 2015 Magirus SULTAN 140S COMFORT (27+1+1) Ankara 4.9.2026 16:30 1.000 TL
997 2023 Daf XG 480 FT Mersin 4.9.2026 16:30 1.000 TL
998 2023 Renault MEGANE SEDAN ICON 1.3 TCE EDC 140 FAZ2 İstanbul 4.9.2026 16:30 1.000 TL
999 2024 Motorsiklet RKS NEWLIGHT 125 PRO İstanbul 4.9.2026 16:30 1.000 TL
1000 2014 Chrysler JEEP RENEGADE 1.6 MULTIJET LIMITED İstanbul 4.9.2026 16:30 1.000 TL
1001 2026 Fiat/Tofaş EGEA SEDAN EASY 1.6 M.JET 130 DCT GSR Samsun 4.9.2026 16:30 300.000 TL
1002 2026 Motorsiklet MONDIAL SCOOTER 50 REVIVAL İstanbul 4.9.2026 16:30 1.000 TL
1003 2012 Motorsiklet HONDA CBF 250 Bursa 4.9.2026 16:30 1.000 TL
1004 2004 Toyota COROLLA 1.6 SOL HB Eskişehir 4.9.2026 16:30 1.000 TL
1005 2024 Motorsiklet ARORA MOJITO 125 İstanbul 4.9.2026 16:30 1.000 TL
1006 2004 Audi A6 1.8T MULTITRONIC Afyonkarahisar 4.9.2026 16:30 1.000 TL
1007 2025 Motorsiklet RKS PRECIO 250 MAX İstanbul 4.9.2026 16:30 1.000 TL
1008 2025 Motorsiklet HONDA DIO İstanbul 4.9.2026 16:30 4.000 TL
1009 2022 Motorsiklet DUCATI MULTISTRADA V4 PIKES PEAK İstanbul 4.9.2026 16:30 1.000 TL
1010 1993 Renault 12 TSW TOROS 5 VT Diyarbakır 4.9.2026 16:30 1.000 TL
1011 2012 Mitsubishi L200 CIFT KABIN KAMYONET 4x2 INVITE Ankara 4.9.2026 16:30 1.000 TL
1012 2009 Renault SYMBOL EXPRESSION 1.4 75 İstanbul 4.9.2026 16:30 1.000 TL
1013 2006 Ford FOCUS 1.6i SW TREND (100) Ankara 4.9.2026 16:30 70.000 TL
1014 2015 Bmw 320İ ED 170 SEDAN SPORT LINE İstanbul 4.9.2026 16:30 1.000 TL
1015 1993 Renault 9 BROADWAY Balıkesir 4.9.2026 16:30 500 TL
1016 2012 Honda CIVIC SEDAN 1.6 (125) PREMIUM (Y) İstanbul 4.9.2026 16:30 500 TL
1017 2022 Land Rover DEFENDER 90 3.0 DIZEL D200 (2 KISILIK) NIG İstanbul 4.9.2026 16:30 422.000 TL
1018 2013 Isuzu NPR 3D Çorum 4.9.2026 16:30 601.500 TL
1019 1997 Opel VECTRA 1.6 GL Düzce 4.9.2026 16:30 1.000 TL
1020 2024 Mercedes SPRINTER 417 CDI 19+1 Antalya 4.9.2026 16:30 1.500 TL
1021 2016 Seat IBIZA 1.2 TSI 90 STYLE İstanbul 4.9.2026 16:30 1.000 TL
1022 2021 Suzuki SWIFT HIBRIT 1.2 GL TECHNO CVT İstanbul 4.9.2026 16:30 500 TL
1023 1998 Volkswagen POLO 1.6 4 KAPI Konya 4.9.2026 16:30 500 TL
1024 2017 Dacia DUSTER AMBIANCE 4X2 1.5 DCI 90 Mardin 4.9.2026 16:30 1.000 TL
1025 2023 Motorsiklet MONDIAL 125 DRIFT L CBS Mersin 4.9.2026 16:30 500 TL
1026 2005 Fiat/Tofaş ALBEA 1.3 MULTIJET Aydın 4.9.2026 16:30 500 TL
1027 2023 Motorsiklet KUBA VN50 PRO Muğla 4.9.2026 16:30 500 TL
1028 2022 Motorsiklet RKS PRIVATE 125 (GST125T-6) Denizli 4.9.2026 16:30 500 TL
1029 2014 Volkswagen CRAFTER OKUL 16+1 İstanbul 4.9.2026 16:30 1.000 TL
1030 2004 Renault MEGANE SEDAN 1.6 Bursa 4.9.2026 16:30 1.000 TL
1031 2013 Honda CBF 150 Aydın 4.9.2026 16:30 1.000 TL
1032 1998 Mitsubishi L300 PANEL VAN İstanbul 4.9.2026 16:30 1.000 TL
1033 2023 Motorsiklet 790 DUKE İstanbul 4.9.2026 16:30 60.000 TL
1034 2021 Honda PCX 125 Hatay 4.9.2026 16:30 1.000 TL
1035 2023 Bmw CE 04 İstanbul 4.9.2026 16:30 1.500 TL
1036 2016 Ford FOCUS TREND X 1.5 TDCI Aksaray 4.9.2026 16:30 1.000 TL
1037 2004 Peugeot 206 1.4 Gaziantep 4.9.2026 16:30 1.000 TL
1038 2018 Motorsiklet SYM FIDDLE III 125 İstanbul 5.9.2026 16:30 1.000 TL
1039 2023 Motorsiklet KTM 250 DUKE ABS İstanbul 5.9.2026 16:30 1.000 TL
1040 2025 Fiat/Tofaş DOBLO COMBI 1.3 M.JET 90 PREMIO PLUS Erzincan 5.9.2026 16:30 1.000 TL
1041 2024 Motorsiklet KTM 125 DUKE İstanbul 5.9.2026 16:30 1.000 TL
1042 2006 Nissan PRIMERA 1.6 TEKNA SEDAN Eskişehir 5.9.2026 16:30 500 TL
1043 2000 Fiat/Tofaş PALIO 1.4 EL Erzurum 5.9.2026 16:30 25.000 TL
1044 2025 Motorsiklet YAMAHA R25 ABS İzmir 5.9.2026 16:30 1.000 TL
1045 2007 Renault MEGANE II SEDAN EXPRESSION 1.5 DCI Bilecik 5.9.2026 16:30 1.000 TL
1046 2016 Toyota VERSO 1.6 D-4D ADVANCE Samsun 5.9.2026 16:30 1.000 TL
1047 2024 Motorsiklet RT3 125 Malatya 7.9.2026 15:30 1.000 TL
1048 2023 Citroen AMI Ankara 7.9.2026 15:30 1.000 TL
1049 2022 Motorsiklet SPONTINI 110 (GST110T-14) İzmir 7.9.2026 15:30 1.000 TL
1050 2004 Hyundai GETZ 1.3 GLS OV Ankara 7.9.2026 15:30 1.000 TL
1051 2007 Toyota YARIS 1.0 TERRA Elazığ 7.9.2026 15:30 1.000 TL
1052 1999 Toyota AVENSIS 2.0 SEDAN Karabük 7.9.2026 15:30 1.000 TL
1053 2025 Hyundai i20 1.0 T-GDI Kahramanmaraş 7.9.2026 15:30 1.000 TL
1054 2022 Renault CLIO JOY 1.0 Kocaeli 7.9.2026 15:30 1.000 TL
1055 2015 Dacia SANDERO 1.5 DCI Uşak 7.9.2026 15:30 1.000 TL
1056 2023 Tesla MODEL Y Ankara 7.9.2026 15:30 1.000 TL
1057 2006 Ford FIESTA 1.4 COMFORT Sakarya 7.9.2026 15:30 1.000 TL
1058 2017 Volkswagen POLO 1.4 TDI Manisa 7.9.2026 15:30 1.000 TL
1059 2013 Dacia LODGY 1.5 DCI Şehir Seç 7.9.2026 15:30 1.000 TL
1060 2012 Renault SYMBOL 1.5 DCI İstanbul 7.9.2026 15:30 1.000 TL
1061 2014 Volkswagen JETTA 1.6 TDI Adana 7.9.2026 15:30 1.000 TL
1062 2006 Renault CLIO ALIZE Kütahya 7.9.2026 15:30 1.000 TL
1063 1999 Ford FOCUS 1.6 SEDAN Uşak 7.9.2026 15:30 1.000 TL
1064 1994 Fiat/Tofaş KARTAL 1.6 Şehir Seç 7.9.2026 15:30 1.000 TL
1065 2023 Peugeot 2008 1.2 PURETECH Denizli 7.9.2026 15:30 1.000 TL
1066 1992 Fiat/Tofaş ŞAHİN 1.6 Şehir Seç 7.9.2026 15:30 1.000 TL
1067 2026 Motorsiklet FR177 Kastamonu 7.9.2026 15:30 1.000 TL
1068 2005 Nissan ALMERA 1.5 Muğla 7.9.2026 15:30 1.000 TL
1069 2020 Dacia DOKKER VAN 1.5 BLUEDCI Şehir Seç 7.9.2026 15:30 1.000 TL
1070 2015 Skoda OCTAVIA 1.6 TDI Bingöl 7.9.2026 15:30 1.000 TL
1071 2026 Fiat/Tofaş EGEA 1.6 M.JET Konya 7.9.2026 15:30 1.000 TL
1072 1998 Toyota HILUX Kahramanmaraş 7.9.2026 15:30 1.000 TL
1073 2021 Renault ZOE Kocaeli 7.9.2026 15:30 1.000 TL
1074 1991 Nissan LAUREL ALTIMA 2.0 Şehir Seç 7.9.2026 15:30 1.000 TL
1075 2010 Motorsiklet Salcano WOLF 125 Antalya 7.9.2026 15:30 TL
1076 1998 Ford ESCORT 1.6i CL SEDAN Şehir Seç 7.9.2026 15:30 1.000 TL
1077 1998 Volkswagen POLO 1.6 CLASSIC (ESKİ KASA) Aydın 7.9.2026 15:30 1.000 TL
1078 2024 Motorsiklet 250 NK Malatya 7.9.2026 15:30 1.000 TL
1079 2023 Motorsiklet MATI 125 Antalya 7.9.2026 15:30 1.000 TL
1080 2015 Nissan MİCRA 1.2 STREET Muğla 7.9.2026 15:30 1.000 TL
1081 2021 Opel COMBO 1.5 D 130 Antalya 7.9.2026 15:30 1.000 TL
1082 2019 Dorse/Römork KRONE SD TENTELİ Gaziantep 7.9.2026 15:30 1.000 TL
1083 2024 Motorsiklet VERANO 50 Eskişehir 7.9.2026 15:30 1.000 TL
1084 2004 Renault MEGANE II SEDAN DYNAMIC 1.6 16V Ankara 7.9.2026 15:30 1.000 TL
1085 2022 Renault EXPRESS COMBI JOY 1.5 BLUEDCI Samsun 7.9.2026 15:30 1.000 TL
1086 2015 Motorsiklet JOYMAX 250i Tokat 7.9.2026 15:30 1.000 TL
1087 2020 Motorsiklet MT 25 Çanakkale 7.9.2026 15:30 1.000 TL
1088 2016 Ford TRANSIT CUSTOM VAN İstanbul 7.9.2026 15:30 1.000 TL
1089 2026 Honda FORZA 250 NSS250A İstanbul 7.9.2026 15:30 1.000 TL
1090 2023 Motorsiklet 125 DRIFT L İzmir 7.9.2026 15:30 1.000 TL
1091 2020 Honda CRF1100 AFRICA TWIN ADVNTURESPORTSES DCT Muğla 7.9.2026 15:30 1.000 TL
1092 2017 Ford TRANSİT 350M KAMYONET İstanbul 7.9.2026 15:30 1.000 TL
1093 2023 Motorsiklet 250 NK Antalya 7.9.2026 15:30 1.000 TL
1094 2015 Hyundai i30 1.6 CRDI ELITE İzmir 7.9.2026 15:30 1.000 TL
1095 2014 Fiat/Tofaş DOBLO 1.3 M.JET Şehir Seç 7.9.2026 15:30 1.000 TL
1096 2024 Hyundai IONIQ 6 İstanbul 7.9.2026 15:30 1.000 TL
1097 1987 Renault BROADWAY 1.4 Balıkesir 7.9.2026 15:30 1.000 TL
1098 2024 Motorsiklet JUPITER 125 Şehir Seç 7.9.2026 15:30 1.000 TL
1099 2010 Honda CIVIC 1.6 DREAM Bursa 7.9.2026 15:30 1.000 TL
1100 2024 Chery TIGGO 8 PRO MAX 1.6 T-GDI İstanbul 7.9.2026 15:30 1.000 TL
1101 2014 Motorsiklet ZONE S Tokat 7.9.2026 15:30 1.000 TL
1102 2005 Citroen C3 1.4İ 16V HDI SX Şehir Seç 7.9.2026 15:30 1.000 TL
1103 2010 Ford RANGER CIFT KABIN K.NET 4x2 Muğla 7.9.2026 15:30 1.000 TL
1104 2004 Renault MEGANE 1.6 Sivas 7.9.2026 15:30 1.000 TL
1105 2017 Seat LEON ST 1.6 TDI 115 DSG Batman 7.9.2026 15:30 1.000 TL
1106 2021 Renault MEGANE 1,3 TCE Erzurum 7.9.2026 15:30 1.000 TL
1107 2021 Renault CLIO 1,0 TCE Sivas 7.9.2026 15:30 1.000 TL
1108 2018 Skoda OCTAVIA 1.6 TDI Ordu 7.9.2026 15:30 1.000 TL
1109 2016 Ford TRANSIT MİNÜBÜS Malatya 7.9.2026 15:30 1.000 TL
1110 2013 Volkswagen TRANSPORTER 2,0 TDI Elazığ 7.9.2026 15:30 1.000 TL
1111 2021 Toyota COROLLA 1.8 HYBRID Diyarbakır 7.9.2026 15:30 1.000 TL
1112 2016 Bmw 320i ED SEDAN 1.6 İstanbul 7.9.2026 15:30 1.000 TL
1113 2019 Fiat/Tofaş EGEA SEDAN 1.3 M.JET Çorum 7.9.2026 15:30 1.000 TL
1114 2014 Opel ASTRA HB 1.6 İstanbul 7.9.2026 15:30 1.000 TL
1115 2023 Motorsiklet ÇITA 50 R GOLD Malatya 7.9.2026 15:30 1.000 TL
1116 2015 Mercedes CEKICI AXOR 1840 LS E5 Adana 7.9.2026 15:30 1.000 TL
1117 2006 Ford KAMYON CARGO 2524 (6x2) Muğla 7.9.2026 15:30 1.000 TL
1118 2025 Motorsiklet NEWCITY 50 İstanbul 7.9.2026 15:30 1.000 TL
1119 2019 Fiat/Tofaş EGEA SEDAN 1.3 M.JET 95 Van 7.9.2026 15:30 1.000 TL
1120 2024 Motorsiklet AZURE GST50QT-5 Şehir Seç 7.9.2026 15:30 1.000 TL
1121 2014 Mercedes SPRINTER 416 CDI OTOBUS 19+1 Ankara 7.9.2026 15:30 1.000 TL
1122 2001 Fiat/Tofaş MAREA 1.6 ELX Kayseri 7.9.2026 15:30 1.000 TL
1123 1992 Fiat/Tofaş DOĞAN 1.6 Balıkesir 7.9.2026 15:30 1.000 TL
1124 2012 Ford T. CONNECT KOMBI 1.8 TDCi Siirt 7.9.2026 15:30 1.000 TL
1125 1995 Fiat/Tofaş UNO SX Gaziantep 7.9.2026 15:30 1.000 TL
1126 2024 Motorsiklet 250 SR Antalya 7.9.2026 15:30 1.000 TL
1127 2021 Bmw 320i SEDAN 1.6 170 SPORT LINE Ankara 7.9.2026 16:30 25.000 TL
1128 2016 Volkswagen TIGUAN 1.4 TSI ACT BMT 150 DSG COMFORTLINE İstanbul 7.9.2026 16:30 401.000 TL
1129 2016 Skoda FABIA 1.2 TSI 110 DSG GREEN TEC STYLE İstanbul 7.9.2026 16:30 1.000 TL
1130 2025 Opel COMBO EDITION 1.5 DIZEL AT8 130 FL Ankara 7.9.2026 16:30 1.000 TL
1131 2021 Citroen C4 SHINE BOLD 1.2 PURETECH 155 EAT8 E6.3 Ankara 7.9.2026 16:30 500 TL
1132 2021 Citroen C5AIRCROSS SHINEBOLD 1.5 BLUEHDI 130 S&S EAT8 İstanbul 7.9.2026 16:30 750.000 TL
1133 2025 Renault CLIO EVOLUTION 1.0 TCE X-TRONIC 90 İstanbul 7.9.2026 16:30 515.000 TL
1134 2021 Ford TOURNEO COURIER JOURNEY 1.5 TDCI 100 E6.2 TIT İstanbul 7.9.2026 16:30 100.000 TL
1135 2022 Renault TALIANT JOY 1.0 SCE 65 Ankara 7.9.2026 16:30 55.000 TL
1136 2024 Skoda KAMIQ 1.0 TSI 115 DSG ELITE FL İstanbul 7.9.2026 16:30 605.000 TL
1137 2007 Ford TRANSIT 350 M KAMYONET Giresun 7.9.2026 16:30 125.000 TL
1138 2025 Scania S560 DYNAMIC Samsun 7.9.2026 16:30 1.450.000 TL
1139 2012 Peugeot 208 ACTIVE 1.4 HDI Kocaeli 7.9.2026 16:30 1.000 TL
1140 2012 Hyundai ACCENT BLUE 1.6 CRDI Çorum 8.9.2026 15:30 1.000 TL
1141 2023 Peugeot 508 1.5 BLUEHDI 130 Hatay 8.9.2026 15:30 1.000 TL
1142 2024 Chery TIGGO 7 PRO Van 8.9.2026 15:30 1.000 TL
1143 2015 Hyundai i30 1.6 GDI DCT Eskişehir 8.9.2026 15:30 1.000 TL
1144 2014 Honda CBR 250 R Ankara 8.9.2026 15:30 1.000 TL
1145 2024 Honda DIO 110 Kocaeli 8.9.2026 15:30 1.000 TL
1146 2025 Motorsiklet 250 SR Antalya 8.9.2026 15:30 1.000 TL
1147 2004 Suzuki GSXR 750 Şehir Seç 8.9.2026 15:30 1.000 TL
1148 1996 Fiat/Tofaş KARTAL SLX Karaman 8.9.2026 15:30 1.000 TL
1149 2012 Skoda FABIA 1.2 Bolu 8.9.2026 15:30 1.000 TL
1150 2025 Citroen C4 X 1.2 PURETECH Niğde 8.9.2026 15:30 1.000 TL
1151 2019 Peugeot 3008 1.5 BLUEHDI Şanlıurfa 8.9.2026 15:30 1.000 TL
1152 2024 Peugeot e-2008 Kayseri 8.9.2026 15:30 1.000 TL
1153 2001 Renault CLIO SEDAN 1.4 RNA Balıkesir 8.9.2026 15:30 1.000 TL
1154 2017 Audi A6 2.0 TDI Şanlıurfa 8.9.2026 15:30 1.000 TL
1155 1989 Renault 11 FLASH Şehir Seç 8.9.2026 15:30 TL
1156 2024 Togg T10X V2 RWD UZUN MENZIL 160KW İzmir 8.9.2026 15:30 1.000 TL
1157 2017 Ford FOCUS III MCA 1.6 TDCI Niğde 8.9.2026 15:30 1.000 TL
1158 2016 Fiat/Tofaş DOBLO COMBI 1.6 M.JET Şanlıurfa 8.9.2026 15:30 1.000 TL
1159 2024 Motorsiklet KUBA TK03 Malatya 9.9.2026 15:30 1.000 TL
1160 2023 Motorsiklet KUBA EGE 50 Osmaniye 9.9.2026 15:30 1.000 TL
1161 2016 Bmw 520i SEDAN 1.6 (170) İstanbul 9.9.2026 15:30 1.000 TL
1162 2012 Volkswagen GOLF 1.6 TDI BMT 105 COMFORTLINE İstanbul 9.9.2026 15:30 1.000 TL
1163 2020 Motorsiklet KRAL YKR44 PION Şehir Seç 9.9.2026 15:30 1.000 TL
1164 2022 Motorsiklet 250 DUKE Gaziantep 9.9.2026 15:30 1.000 TL
1165 1998 Ford LCY UZUN ŞASİ Manisa 9.9.2026 15:30 1.000 TL
1166 2020 Motorsiklet MTN 250 Muğla 9.9.2026 15:30 1.000 TL
1167 2024 Motorsiklet MONDIAL SCOOTER FURY 110i Aydın 9.9.2026 15:30 1.000 TL
1168 2009 Ford TRANSIT KAMYONET Şanlıurfa 9.9.2026 15:30 1.000 TL
1169 2023 Motorsiklet VIESTE 249 Şehir Seç 10.9.2026 15:30 1.000 TL
1170 2013 Fiat/Tofaş LINEA SEDAN 1.3 MULTIJET Konya 10.9.2026 15:30 1.000 TL
1171 2023 Motorsiklet KRAL RIGIL 125 Muğla 10.9.2026 15:30 1.000 TL
1172 2018 Motorsiklet CUP 100 SFC SNAPPY X Niğde 10.9.2026 15:30 1.000 TL
1173 2017 Bmw 318i SEDAN 1.5 Bursa 10.9.2026 15:30 1.000 TL
1174 2012 Fiat/Tofaş LINEA 1.3 MULTIJET Şehir Seç 10.9.2026 15:30 1.000 TL
1175 2004 Opel VECTRA 1.6 COMFORT Şanlıurfa 10.9.2026 15:30 1.000 TL
1176 2014 Peugeot 301 1,6 HDI İzmir 10.9.2026 15:30 1.000 TL
1177 2025 Opel CORSA 1.2 T Hatay 10.9.2026 15:30 1.000 TL
1178 2024 Byd SEAL U DM-i Şanlıurfa 10.9.2026 15:30 1.000 TL
1179 2013 Renault SYMBOL 1.5 DCI Balıkesir 10.9.2026 15:30 1.000 TL
1180 2023 Motorsiklet PULSAR F250 İstanbul 10.9.2026 15:30 1.000 TL
1181 2013 Opel CORSA 1.3 CDTi İzmir 10.9.2026 15:30 1.000 TL
1182 1992 Renault 9 GTE BROADWAY Antalya 11.9.2026 15:30 1.000 TL
1183 2023 Fiat/Tofaş EGEA CROSS 1.6 M.JET Karaman 11.9.2026 15:30 1.000 TL
1184 2013 Renault FLUENCE SEDAN 1.5 DCI Mardin 11.9.2026 15:30 1.000 TL
1185 2016 Volkswagen GOLF 1.6 TDI Konya 11.9.2026 15:30 1.000 TL
1186 1992 Renault R 1179 Manisa 11.9.2026 15:30 1.000 TL
1187 2023 Dacia DUSTER 1.5 BLUEDCI 115 Kars 11.9.2026 15:30 1.000 TL
1188 2001 Ford FOCUS 1.6i GHIA SEDAN Van 11.9.2026 15:30 1.000 TL
Deniz Uğurlu : 0532 6657413 - Abdullah Adsay : 0506 7521791 - Metin Oktay : 0532 6717940 -  WhatsApp Hattı: 0533 2028867
Banka Hesabımız
Copyright © 2003 , TAŞKIN  UĞURLU  Hasarlı Oto Tüm hakları saklıdır.